<?xml version="1.0" encoding="UTF-8" standalone="no" ?>
<gpx xmlns="http://www.topografix.com/GPX/1/1" xmlns:xsi="http://www.w3.org/2001/XMLSchema-instance" xsi:schemaLocation="http://www.topografix.com/GPX/1/1 http://www.topografix.com/GPX/1/1/gpx.xsd" version="1.1" creator="VisuGPX - https://www.visugpx.com">
  <metadata>
    <name>L Aulp Du Seuil</name>
    <desc><![CDATA[grp_trc:[nouvelles]]]></desc>
  </metadata>
  <trk>
    <name><![CDATA[11 nov. 2021 à 09:53:34]]></name>
    <cmt><![CDATA[11 nov. 2021 à 09:53:34]]></cmt>
    <trkseg>
      <trkpt lat="45.58162" lon="6.06201">
        <ele>1058.5</ele>
        <time>2021-11-11T08:53:34Z</time>
      </trkpt>
      <trkpt lat="45.58153" lon="6.06214">
        <ele>1006</ele>
        <time>2021-11-11T08:53:35Z</time>
      </trkpt>
      <trkpt lat="45.58148" lon="6.06218">
        <ele>1038</ele>
        <time>2021-11-11T08:53:37Z</time>
      </trkpt>
      <trkpt lat="45.58132" lon="6.06211">
        <ele>1049</ele>
        <time>2021-11-11T08:53:47Z</time>
      </trkpt>
      <trkpt lat="45.58104" lon="6.06204">
        <ele>1047</ele>
        <time>2021-11-11T08:54:07Z</time>
      </trkpt>
      <trkpt lat="45.58101" lon="6.06198">
        <ele>1048</ele>
        <time>2021-11-11T08:54:12Z</time>
      </trkpt>
      <trkpt lat="45.58095" lon="6.06199">
        <ele>1047</ele>
        <time>2021-11-11T08:54:18Z</time>
      </trkpt>
      <trkpt lat="45.58088" lon="6.06198">
        <ele>1046</ele>
        <time>2021-11-11T08:54:24Z</time>
      </trkpt>
      <trkpt lat="45.58084" lon="6.06204">
        <ele>1044</ele>
        <time>2021-11-11T08:54:29Z</time>
      </trkpt>
      <trkpt lat="45.58091" lon="6.06207">
        <ele>1043</ele>
        <time>2021-11-11T08:54:35Z</time>
      </trkpt>
      <trkpt lat="45.58096" lon="6.06208">
        <ele>1043</ele>
        <time>2021-11-11T08:54:41Z</time>
      </trkpt>
      <trkpt lat="45.58106" lon="6.06212">
        <ele>1042</ele>
        <time>2021-11-11T08:54:51Z</time>
      </trkpt>
      <trkpt lat="45.58113" lon="6.06217">
        <ele>1042</ele>
        <time>2021-11-11T08:54:56Z</time>
      </trkpt>
      <trkpt lat="45.58121" lon="6.06229">
        <ele>1039</ele>
        <time>2021-11-11T08:55:07Z</time>
      </trkpt>
      <trkpt lat="45.58143" lon="6.06258">
        <ele>1037</ele>
        <time>2021-11-11T08:55:28Z</time>
      </trkpt>
      <trkpt lat="45.58157" lon="6.06267">
        <ele>1036</ele>
        <time>2021-11-11T08:55:41Z</time>
      </trkpt>
      <trkpt lat="45.58172" lon="6.06272">
        <ele>1035</ele>
        <time>2021-11-11T08:55:52Z</time>
      </trkpt>
      <trkpt lat="45.58185" lon="6.06281">
        <ele>1034</ele>
        <time>2021-11-11T08:56:06Z</time>
      </trkpt>
      <trkpt lat="45.582" lon="6.06305">
        <ele>1032</ele>
        <time>2021-11-11T08:56:26Z</time>
      </trkpt>
      <trkpt lat="45.58185" lon="6.06317">
        <ele>1037</ele>
        <time>2021-11-11T08:56:57Z</time>
      </trkpt>
      <trkpt lat="45.58162" lon="6.06332">
        <ele>1039</ele>
        <time>2021-11-11T08:57:22Z</time>
      </trkpt>
      <trkpt lat="45.58122" lon="6.06324">
        <ele>1046</ele>
        <time>2021-11-11T08:58:06Z</time>
      </trkpt>
      <trkpt lat="45.58115" lon="6.06328">
        <ele>1047</ele>
        <time>2021-11-11T08:58:13Z</time>
      </trkpt>
      <trkpt lat="45.58096" lon="6.0635">
        <ele>1048</ele>
        <time>2021-11-11T08:58:55Z</time>
      </trkpt>
      <trkpt lat="45.58091" lon="6.06356">
        <ele>1048</ele>
        <time>2021-11-11T08:59:00Z</time>
      </trkpt>
      <trkpt lat="45.58055" lon="6.06379">
        <ele>1053</ele>
        <time>2021-11-11T08:59:36Z</time>
      </trkpt>
      <trkpt lat="45.58034" lon="6.064">
        <ele>1056</ele>
        <time>2021-11-11T09:00:09Z</time>
      </trkpt>
      <trkpt lat="45.58021" lon="6.06409">
        <ele>1058</ele>
        <time>2021-11-11T09:00:23Z</time>
      </trkpt>
      <trkpt lat="45.58018" lon="6.06417">
        <ele>1059</ele>
        <time>2021-11-11T09:00:27Z</time>
      </trkpt>
      <trkpt lat="45.58016" lon="6.06425">
        <ele>1059</ele>
        <time>2021-11-11T09:00:33Z</time>
      </trkpt>
      <trkpt lat="45.58016" lon="6.06435">
        <ele>1060</ele>
        <time>2021-11-11T09:00:42Z</time>
      </trkpt>
      <trkpt lat="45.58019" lon="6.06444">
        <ele>1061</ele>
        <time>2021-11-11T09:00:47Z</time>
      </trkpt>
      <trkpt lat="45.58021" lon="6.06451">
        <ele>1063</ele>
        <time>2021-11-11T09:00:51Z</time>
      </trkpt>
      <trkpt lat="45.58021" lon="6.06459">
        <ele>1062</ele>
        <time>2021-11-11T09:00:57Z</time>
      </trkpt>
      <trkpt lat="45.58034" lon="6.06506">
        <ele>1067</ele>
        <time>2021-11-11T09:01:32Z</time>
      </trkpt>
      <trkpt lat="45.58034" lon="6.06526">
        <ele>1072</ele>
        <time>2021-11-11T09:01:56Z</time>
      </trkpt>
      <trkpt lat="45.58031" lon="6.06549">
        <ele>1076</ele>
        <time>2021-11-11T09:02:18Z</time>
      </trkpt>
      <trkpt lat="45.5805" lon="6.0655">
        <ele>1077</ele>
        <time>2021-11-11T09:02:42Z</time>
      </trkpt>
      <trkpt lat="45.58068" lon="6.06562">
        <ele>1080</ele>
        <time>2021-11-11T09:03:07Z</time>
      </trkpt>
      <trkpt lat="45.58083" lon="6.06585">
        <ele>1082</ele>
        <time>2021-11-11T09:03:28Z</time>
      </trkpt>
      <trkpt lat="45.58109" lon="6.06594">
        <ele>1085</ele>
        <time>2021-11-11T09:03:54Z</time>
      </trkpt>
      <trkpt lat="45.58138" lon="6.06593">
        <ele>1087</ele>
        <time>2021-11-11T09:04:14Z</time>
      </trkpt>
      <trkpt lat="45.58158" lon="6.06592">
        <ele>1091</ele>
        <time>2021-11-11T09:04:39Z</time>
      </trkpt>
      <trkpt lat="45.5818" lon="6.06603">
        <ele>1092</ele>
        <time>2021-11-11T09:05:09Z</time>
      </trkpt>
      <trkpt lat="45.58194" lon="6.066">
        <ele>1093</ele>
        <time>2021-11-11T09:05:20Z</time>
      </trkpt>
      <trkpt lat="45.58207" lon="6.06592">
        <ele>1093</ele>
        <time>2021-11-11T09:05:31Z</time>
      </trkpt>
      <trkpt lat="45.58236" lon="6.06581">
        <ele>1097</ele>
        <time>2021-11-11T09:05:56Z</time>
      </trkpt>
      <trkpt lat="45.58251" lon="6.06581">
        <ele>1097</ele>
        <time>2021-11-11T09:06:07Z</time>
      </trkpt>
      <trkpt lat="45.58266" lon="6.0659">
        <ele>1097</ele>
        <time>2021-11-11T09:06:26Z</time>
      </trkpt>
      <trkpt lat="45.58326" lon="6.06615">
        <ele>1103</ele>
        <time>2021-11-11T09:07:35Z</time>
      </trkpt>
      <trkpt lat="45.58353" lon="6.06629">
        <ele>1104</ele>
        <time>2021-11-11T09:07:55Z</time>
      </trkpt>
      <trkpt lat="45.58389" lon="6.0663">
        <ele>1107</ele>
        <time>2021-11-11T09:08:39Z</time>
      </trkpt>
      <trkpt lat="45.58417" lon="6.06649">
        <ele>1118</ele>
        <time>2021-11-11T09:09:58Z</time>
      </trkpt>
      <trkpt lat="45.58444" lon="6.06675">
        <ele>1122</ele>
        <time>2021-11-11T09:10:35Z</time>
      </trkpt>
      <trkpt lat="45.5846" lon="6.06715">
        <ele>1125</ele>
        <time>2021-11-11T09:11:18Z</time>
      </trkpt>
      <trkpt lat="45.58449" lon="6.06762">
        <ele>1138</ele>
        <time>2021-11-11T09:12:43Z</time>
      </trkpt>
      <trkpt lat="45.58466" lon="6.06803">
        <ele>1147</ele>
        <time>2021-11-11T09:13:49Z</time>
      </trkpt>
      <trkpt lat="45.58456" lon="6.06848">
        <ele>1157</ele>
        <time>2021-11-11T09:14:55Z</time>
      </trkpt>
      <trkpt lat="45.58456" lon="6.06892">
        <ele>1167</ele>
        <time>2021-11-11T09:16:05Z</time>
      </trkpt>
      <trkpt lat="45.58472" lon="6.0693">
        <ele>1174</ele>
        <time>2021-11-11T09:17:00Z</time>
      </trkpt>
      <trkpt lat="45.58463" lon="6.06951">
        <ele>1185</ele>
        <time>2021-11-11T09:17:55Z</time>
      </trkpt>
      <trkpt lat="45.58446" lon="6.06962">
        <ele>1188</ele>
        <time>2021-11-11T09:18:36Z</time>
      </trkpt>
      <trkpt lat="45.58412" lon="6.06961">
        <ele>1185</ele>
        <time>2021-11-11T09:19:10Z</time>
      </trkpt>
      <trkpt lat="45.58386" lon="6.06968">
        <ele>1181</ele>
        <time>2021-11-11T09:20:37Z</time>
      </trkpt>
      <trkpt lat="45.58369" lon="6.06967">
        <ele>1182</ele>
        <time>2021-11-11T09:20:51Z</time>
      </trkpt>
      <trkpt lat="45.58355" lon="6.06972">
        <ele>1183</ele>
        <time>2021-11-11T09:21:02Z</time>
      </trkpt>
      <trkpt lat="45.58341" lon="6.06957">
        <ele>1184</ele>
        <time>2021-11-11T09:21:37Z</time>
      </trkpt>
      <trkpt lat="45.58327" lon="6.06944">
        <ele>1185</ele>
        <time>2021-11-11T09:21:50Z</time>
      </trkpt>
      <trkpt lat="45.58312" lon="6.06942">
        <ele>1186</ele>
        <time>2021-11-11T09:22:04Z</time>
      </trkpt>
      <trkpt lat="45.58301" lon="6.06957">
        <ele>1191</ele>
        <time>2021-11-11T09:22:29Z</time>
      </trkpt>
      <trkpt lat="45.5829" lon="6.06963">
        <ele>1194</ele>
        <time>2021-11-11T09:22:57Z</time>
      </trkpt>
      <trkpt lat="45.58273" lon="6.06972">
        <ele>1199</ele>
        <time>2021-11-11T09:23:26Z</time>
      </trkpt>
      <trkpt lat="45.58261" lon="6.06986">
        <ele>1209</ele>
        <time>2021-11-11T09:24:14Z</time>
      </trkpt>
      <trkpt lat="45.58284" lon="6.0702">
        <ele>1221</ele>
        <time>2021-11-11T09:25:34Z</time>
      </trkpt>
      <trkpt lat="45.58299" lon="6.07053">
        <ele>1242</ele>
        <time>2021-11-11T09:28:01Z</time>
      </trkpt>
      <trkpt lat="45.5832" lon="6.07095">
        <ele>1262</ele>
        <time>2021-11-11T09:30:40Z</time>
      </trkpt>
      <trkpt lat="45.58291" lon="6.07108">
        <ele>1283</ele>
        <time>2021-11-11T09:32:48Z</time>
      </trkpt>
      <trkpt lat="45.58262" lon="6.07112">
        <ele>1290</ele>
        <time>2021-11-11T09:33:40Z</time>
      </trkpt>
      <trkpt lat="45.58252" lon="6.07129">
        <ele>1299</ele>
        <time>2021-11-11T09:34:38Z</time>
      </trkpt>
      <trkpt lat="45.58259" lon="6.0716">
        <ele>1307</ele>
        <time>2021-11-11T09:35:20Z</time>
      </trkpt>
      <trkpt lat="45.5828" lon="6.0719">
        <ele>1325</ele>
        <time>2021-11-11T09:37:20Z</time>
      </trkpt>
      <trkpt lat="45.5827" lon="6.07231">
        <ele>1348</ele>
        <time>2021-11-11T09:40:07Z</time>
      </trkpt>
      <trkpt lat="45.58253" lon="6.07263">
        <ele>1364</ele>
        <time>2021-11-11T09:41:45Z</time>
      </trkpt>
      <trkpt lat="45.58259" lon="6.07305">
        <ele>1374</ele>
        <time>2021-11-11T09:43:17Z</time>
      </trkpt>
      <trkpt lat="45.58272" lon="6.07344">
        <ele>1385</ele>
        <time>2021-11-11T09:44:41Z</time>
      </trkpt>
      <trkpt lat="45.58301" lon="6.0736">
        <ele>1394</ele>
        <time>2021-11-11T09:46:05Z</time>
      </trkpt>
      <trkpt lat="45.5833" lon="6.07376">
        <ele>1403</ele>
        <time>2021-11-11T09:47:15Z</time>
      </trkpt>
      <trkpt lat="45.58359" lon="6.07376">
        <ele>1411</ele>
        <time>2021-11-11T09:47:57Z</time>
      </trkpt>
      <trkpt lat="45.58358" lon="6.07426">
        <ele>1426</ele>
        <time>2021-11-11T09:50:04Z</time>
      </trkpt>
      <trkpt lat="45.58332" lon="6.07409">
        <ele>1442</ele>
        <time>2021-11-11T09:52:20Z</time>
      </trkpt>
      <trkpt lat="45.58297" lon="6.07416">
        <ele>1441</ele>
        <time>2021-11-11T09:52:51Z</time>
      </trkpt>
      <trkpt lat="45.58272" lon="6.07434">
        <ele>1449</ele>
        <time>2021-11-11T09:53:41Z</time>
      </trkpt>
      <trkpt lat="45.58243" lon="6.07438">
        <ele>1459</ele>
        <time>2021-11-11T09:55:11Z</time>
      </trkpt>
      <trkpt lat="45.58216" lon="6.07453">
        <ele>1463</ele>
        <time>2021-11-11T09:56:02Z</time>
      </trkpt>
      <trkpt lat="45.58201" lon="6.07448">
        <ele>1463</ele>
        <time>2021-11-11T09:56:15Z</time>
      </trkpt>
      <trkpt lat="45.5819" lon="6.07436">
        <ele>1462</ele>
        <time>2021-11-11T09:56:31Z</time>
      </trkpt>
      <trkpt lat="45.58166" lon="6.07428">
        <ele>1459</ele>
        <time>2021-11-11T09:56:56Z</time>
      </trkpt>
      <trkpt lat="45.58151" lon="6.07431">
        <ele>1458</ele>
        <time>2021-11-11T09:57:08Z</time>
      </trkpt>
      <trkpt lat="45.58131" lon="6.07444">
        <ele>1454</ele>
        <time>2021-11-11T09:57:37Z</time>
      </trkpt>
      <trkpt lat="45.58125" lon="6.0745">
        <ele>1454</ele>
        <time>2021-11-11T09:57:46Z</time>
      </trkpt>
      <trkpt lat="45.58116" lon="6.07457">
        <ele>1454</ele>
        <time>2021-11-11T09:57:59Z</time>
      </trkpt>
      <trkpt lat="45.58095" lon="6.07454">
        <ele>1450</ele>
        <time>2021-11-11T09:58:24Z</time>
      </trkpt>
      <trkpt lat="45.58066" lon="6.07438">
        <ele>1445</ele>
        <time>2021-11-11T09:58:53Z</time>
      </trkpt>
      <trkpt lat="45.58023" lon="6.07425">
        <ele>1443</ele>
        <time>2021-11-11T09:59:37Z</time>
      </trkpt>
      <trkpt lat="45.57975" lon="6.07418">
        <ele>1444</ele>
        <time>2021-11-11T10:00:27Z</time>
      </trkpt>
      <trkpt lat="45.57941" lon="6.07423">
        <ele>1446</ele>
        <time>2021-11-11T10:00:59Z</time>
      </trkpt>
      <trkpt lat="45.57882" lon="6.07442">
        <ele>1444</ele>
        <time>2021-11-11T10:01:56Z</time>
      </trkpt>
      <trkpt lat="45.57855" lon="6.07459">
        <ele>1443</ele>
        <time>2021-11-11T10:02:21Z</time>
      </trkpt>
      <trkpt lat="45.57796" lon="6.07472">
        <ele>1445</ele>
        <time>2021-11-11T10:03:16Z</time>
      </trkpt>
      <trkpt lat="45.57783" lon="6.07489">
        <ele>1443</ele>
        <time>2021-11-11T10:03:34Z</time>
      </trkpt>
      <trkpt lat="45.57777" lon="6.07492">
        <ele>1444</ele>
        <time>2021-11-11T10:03:40Z</time>
      </trkpt>
      <trkpt lat="45.57771" lon="6.07502">
        <ele>1444</ele>
        <time>2021-11-11T10:04:11Z</time>
      </trkpt>
      <trkpt lat="45.57767" lon="6.07508">
        <ele>1444</ele>
        <time>2021-11-11T10:04:16Z</time>
      </trkpt>
      <trkpt lat="45.57765" lon="6.07515">
        <ele>1444</ele>
        <time>2021-11-11T10:04:21Z</time>
      </trkpt>
      <trkpt lat="45.57759" lon="6.07526">
        <ele>1444</ele>
        <time>2021-11-11T10:04:32Z</time>
      </trkpt>
      <trkpt lat="45.57754" lon="6.07534">
        <ele>1443</ele>
        <time>2021-11-11T10:04:39Z</time>
      </trkpt>
      <trkpt lat="45.57749" lon="6.07542">
        <ele>1442</ele>
        <time>2021-11-11T10:04:47Z</time>
      </trkpt>
      <trkpt lat="45.57748" lon="6.07551">
        <ele>1442</ele>
        <time>2021-11-11T10:04:53Z</time>
      </trkpt>
      <trkpt lat="45.57741" lon="6.07557">
        <ele>1443</ele>
        <time>2021-11-11T10:05:29Z</time>
      </trkpt>
      <trkpt lat="45.57736" lon="6.07562">
        <ele>1443</ele>
        <time>2021-11-11T10:06:11Z</time>
      </trkpt>
      <trkpt lat="45.5773" lon="6.07559">
        <ele>1444</ele>
        <time>2021-11-11T10:06:17Z</time>
      </trkpt>
      <trkpt lat="45.57724" lon="6.07557">
        <ele>1444</ele>
        <time>2021-11-11T10:06:22Z</time>
      </trkpt>
      <trkpt lat="45.57719" lon="6.07552">
        <ele>1444</ele>
        <time>2021-11-11T10:06:27Z</time>
      </trkpt>
      <trkpt lat="45.57719" lon="6.07543">
        <ele>1443</ele>
        <time>2021-11-11T10:06:33Z</time>
      </trkpt>
      <trkpt lat="45.57721" lon="6.07523">
        <ele>1445</ele>
        <time>2021-11-11T10:06:44Z</time>
      </trkpt>
      <trkpt lat="45.5772" lon="6.07514">
        <ele>1444</ele>
        <time>2021-11-11T10:06:53Z</time>
      </trkpt>
      <trkpt lat="45.57715" lon="6.07509">
        <ele>1445</ele>
        <time>2021-11-11T10:06:59Z</time>
      </trkpt>
      <trkpt lat="45.5771" lon="6.07504">
        <ele>1445</ele>
        <time>2021-11-11T10:07:04Z</time>
      </trkpt>
      <trkpt lat="45.57707" lon="6.07496">
        <ele>1447</ele>
        <time>2021-11-11T10:07:09Z</time>
      </trkpt>
      <trkpt lat="45.57703" lon="6.07491">
        <ele>1446</ele>
        <time>2021-11-11T10:07:15Z</time>
      </trkpt>
      <trkpt lat="45.57698" lon="6.07485">
        <ele>1447</ele>
        <time>2021-11-11T10:07:20Z</time>
      </trkpt>
      <trkpt lat="45.57692" lon="6.07478">
        <ele>1447</ele>
        <time>2021-11-11T10:07:29Z</time>
      </trkpt>
      <trkpt lat="45.57686" lon="6.07475">
        <ele>1448</ele>
        <time>2021-11-11T10:07:35Z</time>
      </trkpt>
      <trkpt lat="45.5768" lon="6.07468">
        <ele>1447</ele>
        <time>2021-11-11T10:07:41Z</time>
      </trkpt>
      <trkpt lat="45.57673" lon="6.07459">
        <ele>1448</ele>
        <time>2021-11-11T10:07:52Z</time>
      </trkpt>
      <trkpt lat="45.57663" lon="6.07448">
        <ele>1448</ele>
        <time>2021-11-11T10:08:05Z</time>
      </trkpt>
      <trkpt lat="45.57654" lon="6.07442">
        <ele>1449</ele>
        <time>2021-11-11T10:08:18Z</time>
      </trkpt>
      <trkpt lat="45.57647" lon="6.07433">
        <ele>1450</ele>
        <time>2021-11-11T10:08:36Z</time>
      </trkpt>
      <trkpt lat="45.57639" lon="6.07434">
        <ele>1450</ele>
        <time>2021-11-11T10:08:42Z</time>
      </trkpt>
      <trkpt lat="45.57624" lon="6.07428">
        <ele>1451</ele>
        <time>2021-11-11T10:08:58Z</time>
      </trkpt>
      <trkpt lat="45.57607" lon="6.07419">
        <ele>1451</ele>
        <time>2021-11-11T10:09:14Z</time>
      </trkpt>
      <trkpt lat="45.57587" lon="6.07409">
        <ele>1454</ele>
        <time>2021-11-11T10:09:39Z</time>
      </trkpt>
      <trkpt lat="45.57568" lon="6.07402">
        <ele>1453</ele>
        <time>2021-11-11T10:09:59Z</time>
      </trkpt>
      <trkpt lat="45.57547" lon="6.07385">
        <ele>1453</ele>
        <time>2021-11-11T10:10:20Z</time>
      </trkpt>
      <trkpt lat="45.57517" lon="6.0736">
        <ele>1450</ele>
        <time>2021-11-11T10:10:51Z</time>
      </trkpt>
      <trkpt lat="45.57507" lon="6.07351">
        <ele>1451</ele>
        <time>2021-11-11T10:11:01Z</time>
      </trkpt>
      <trkpt lat="45.57494" lon="6.07338">
        <ele>1447</ele>
        <time>2021-11-11T10:11:26Z</time>
      </trkpt>
      <trkpt lat="45.57489" lon="6.07311">
        <ele>1446</ele>
        <time>2021-11-11T10:11:45Z</time>
      </trkpt>
      <trkpt lat="45.57482" lon="6.07292">
        <ele>1445</ele>
        <time>2021-11-11T10:11:56Z</time>
      </trkpt>
      <trkpt lat="45.57453" lon="6.07266">
        <ele>1445</ele>
        <time>2021-11-11T10:12:24Z</time>
      </trkpt>
      <trkpt lat="45.57434" lon="6.07258">
        <ele>1443</ele>
        <time>2021-11-11T10:12:39Z</time>
      </trkpt>
      <trkpt lat="45.57429" lon="6.07255">
        <ele>1440</ele>
        <time>2021-11-11T10:12:43Z</time>
      </trkpt>
      <trkpt lat="45.57424" lon="6.07253">
        <ele>1441</ele>
        <time>2021-11-11T10:12:48Z</time>
      </trkpt>
      <trkpt lat="45.57418" lon="6.07251">
        <ele>1442</ele>
        <time>2021-11-11T10:12:53Z</time>
      </trkpt>
      <trkpt lat="45.57399" lon="6.07242">
        <ele>1442</ele>
        <time>2021-11-11T10:13:12Z</time>
      </trkpt>
      <trkpt lat="45.57387" lon="6.07241">
        <ele>1443</ele>
        <time>2021-11-11T10:13:22Z</time>
      </trkpt>
      <trkpt lat="45.57379" lon="6.07237">
        <ele>1443</ele>
        <time>2021-11-11T10:13:31Z</time>
      </trkpt>
      <trkpt lat="45.5737" lon="6.07229">
        <ele>1443</ele>
        <time>2021-11-11T10:13:40Z</time>
      </trkpt>
      <trkpt lat="45.57362" lon="6.07224">
        <ele>1445</ele>
        <time>2021-11-11T10:13:54Z</time>
      </trkpt>
      <trkpt lat="45.5736" lon="6.07216">
        <ele>1446</ele>
        <time>2021-11-11T10:14:06Z</time>
      </trkpt>
      <trkpt lat="45.57351" lon="6.07211">
        <ele>1448</ele>
        <time>2021-11-11T10:14:19Z</time>
      </trkpt>
      <trkpt lat="45.57346" lon="6.07205">
        <ele>1450</ele>
        <time>2021-11-11T10:14:31Z</time>
      </trkpt>
      <trkpt lat="45.57338" lon="6.07201">
        <ele>1452</ele>
        <time>2021-11-11T10:14:43Z</time>
      </trkpt>
      <trkpt lat="45.57329" lon="6.07188">
        <ele>1455</ele>
        <time>2021-11-11T10:15:03Z</time>
      </trkpt>
      <trkpt lat="45.57324" lon="6.07184">
        <ele>1455</ele>
        <time>2021-11-11T10:15:08Z</time>
      </trkpt>
      <trkpt lat="45.57319" lon="6.07164">
        <ele>1459</ele>
        <time>2021-11-11T10:15:29Z</time>
      </trkpt>
      <trkpt lat="45.57314" lon="6.07157">
        <ele>1461</ele>
        <time>2021-11-11T10:15:47Z</time>
      </trkpt>
      <trkpt lat="45.57307" lon="6.07162">
        <ele>1466</ele>
        <time>2021-11-11T10:16:17Z</time>
      </trkpt>
      <trkpt lat="45.57298" lon="6.07154">
        <ele>1469</ele>
        <time>2021-11-11T10:16:35Z</time>
      </trkpt>
      <trkpt lat="45.57291" lon="6.07149">
        <ele>1470</ele>
        <time>2021-11-11T10:16:43Z</time>
      </trkpt>
      <trkpt lat="45.57285" lon="6.07141">
        <ele>1471</ele>
        <time>2021-11-11T10:16:49Z</time>
      </trkpt>
      <trkpt lat="45.57279" lon="6.07136">
        <ele>1472</ele>
        <time>2021-11-11T10:16:54Z</time>
      </trkpt>
      <trkpt lat="45.57273" lon="6.07135">
        <ele>1471</ele>
        <time>2021-11-11T10:16:59Z</time>
      </trkpt>
      <trkpt lat="45.57267" lon="6.07133">
        <ele>1472</ele>
        <time>2021-11-11T10:17:03Z</time>
      </trkpt>
      <trkpt lat="45.57261" lon="6.07135">
        <ele>1470</ele>
        <time>2021-11-11T10:17:08Z</time>
      </trkpt>
      <trkpt lat="45.57256" lon="6.07139">
        <ele>1470</ele>
        <time>2021-11-11T10:17:14Z</time>
      </trkpt>
      <trkpt lat="45.5725" lon="6.07144">
        <ele>1471</ele>
        <time>2021-11-11T10:17:19Z</time>
      </trkpt>
      <trkpt lat="45.57245" lon="6.07147">
        <ele>1471</ele>
        <time>2021-11-11T10:17:25Z</time>
      </trkpt>
      <trkpt lat="45.5724" lon="6.07144">
        <ele>1472</ele>
        <time>2021-11-11T10:17:31Z</time>
      </trkpt>
      <trkpt lat="45.57227" lon="6.07148">
        <ele>1473</ele>
        <time>2021-11-11T10:17:51Z</time>
      </trkpt>
      <trkpt lat="45.57224" lon="6.07161">
        <ele>1477</ele>
        <time>2021-11-11T10:18:11Z</time>
      </trkpt>
      <trkpt lat="45.57226" lon="6.0717">
        <ele>1482</ele>
        <time>2021-11-11T10:18:35Z</time>
      </trkpt>
      <trkpt lat="45.57209" lon="6.07165">
        <ele>1481</ele>
        <time>2021-11-11T10:19:00Z</time>
      </trkpt>
      <trkpt lat="45.57194" lon="6.0715">
        <ele>1487</ele>
        <time>2021-11-11T10:19:26Z</time>
      </trkpt>
      <trkpt lat="45.57183" lon="6.07137">
        <ele>1494</ele>
        <time>2021-11-11T10:19:53Z</time>
      </trkpt>
      <trkpt lat="45.5717" lon="6.07128">
        <ele>1495</ele>
        <time>2021-11-11T10:20:29Z</time>
      </trkpt>
      <trkpt lat="45.57159" lon="6.07113">
        <ele>1501</ele>
        <time>2021-11-11T10:22:12Z</time>
      </trkpt>
      <trkpt lat="45.57155" lon="6.07103">
        <ele>1502</ele>
        <time>2021-11-11T10:22:36Z</time>
      </trkpt>
      <trkpt lat="45.57154" lon="6.07091">
        <ele>1504</ele>
        <time>2021-11-11T10:22:54Z</time>
      </trkpt>
      <trkpt lat="45.57148" lon="6.07074">
        <ele>1508</ele>
        <time>2021-11-11T10:23:14Z</time>
      </trkpt>
      <trkpt lat="45.57141" lon="6.07067">
        <ele>1510</ele>
        <time>2021-11-11T10:23:28Z</time>
      </trkpt>
      <trkpt lat="45.57133" lon="6.07057">
        <ele>1516</ele>
        <time>2021-11-11T10:23:47Z</time>
      </trkpt>
      <trkpt lat="45.5713" lon="6.07044">
        <ele>1517</ele>
        <time>2021-11-11T10:24:05Z</time>
      </trkpt>
      <trkpt lat="45.57129" lon="6.07035">
        <ele>1520</ele>
        <time>2021-11-11T10:24:23Z</time>
      </trkpt>
      <trkpt lat="45.57123" lon="6.07039">
        <ele>1522</ele>
        <time>2021-11-11T10:24:35Z</time>
      </trkpt>
      <trkpt lat="45.57115" lon="6.07063">
        <ele>1527</ele>
        <time>2021-11-11T10:25:06Z</time>
      </trkpt>
      <trkpt lat="45.57114" lon="6.07074">
        <ele>1530</ele>
        <time>2021-11-11T10:25:30Z</time>
      </trkpt>
      <trkpt lat="45.57113" lon="6.07087">
        <ele>1535</ele>
        <time>2021-11-11T10:25:44Z</time>
      </trkpt>
      <trkpt lat="45.57107" lon="6.07082">
        <ele>1535</ele>
        <time>2021-11-11T10:25:56Z</time>
      </trkpt>
      <trkpt lat="45.57098" lon="6.07074">
        <ele>1537</ele>
        <time>2021-11-11T10:26:08Z</time>
      </trkpt>
      <trkpt lat="45.57088" lon="6.07074">
        <ele>1540</ele>
        <time>2021-11-11T10:26:21Z</time>
      </trkpt>
      <trkpt lat="45.5708" lon="6.07069">
        <ele>1541</ele>
        <time>2021-11-11T10:26:36Z</time>
      </trkpt>
      <trkpt lat="45.57077" lon="6.07062">
        <ele>1542</ele>
        <time>2021-11-11T10:26:42Z</time>
      </trkpt>
      <trkpt lat="45.57064" lon="6.07059">
        <ele>1546</ele>
        <time>2021-11-11T10:27:38Z</time>
      </trkpt>
      <trkpt lat="45.5706" lon="6.07052">
        <ele>1549</ele>
        <time>2021-11-11T10:28:02Z</time>
      </trkpt>
      <trkpt lat="45.57052" lon="6.07046">
        <ele>1551</ele>
        <time>2021-11-11T10:28:20Z</time>
      </trkpt>
      <trkpt lat="45.57047" lon="6.07049">
        <ele>1552</ele>
        <time>2021-11-11T10:28:38Z</time>
      </trkpt>
      <trkpt lat="45.5704" lon="6.07048">
        <ele>1557</ele>
        <time>2021-11-11T10:28:56Z</time>
      </trkpt>
      <trkpt lat="45.57034" lon="6.07046">
        <ele>1559</ele>
        <time>2021-11-11T10:29:09Z</time>
      </trkpt>
      <trkpt lat="45.57025" lon="6.07042">
        <ele>1559</ele>
        <time>2021-11-11T10:29:29Z</time>
      </trkpt>
      <trkpt lat="45.57019" lon="6.07038">
        <ele>1570</ele>
        <time>2021-11-11T10:29:53Z</time>
      </trkpt>
      <trkpt lat="45.57016" lon="6.07031">
        <ele>1571</ele>
        <time>2021-11-11T10:30:11Z</time>
      </trkpt>
      <trkpt lat="45.5701" lon="6.07028">
        <ele>1574</ele>
        <time>2021-11-11T10:30:23Z</time>
      </trkpt>
      <trkpt lat="45.57001" lon="6.07023">
        <ele>1575</ele>
        <time>2021-11-11T10:30:41Z</time>
      </trkpt>
      <trkpt lat="45.56997" lon="6.07017">
        <ele>1578</ele>
        <time>2021-11-11T10:30:53Z</time>
      </trkpt>
      <trkpt lat="45.56991" lon="6.07016">
        <ele>1581</ele>
        <time>2021-11-11T10:31:11Z</time>
      </trkpt>
      <trkpt lat="45.56986" lon="6.07011">
        <ele>1583</ele>
        <time>2021-11-11T10:31:23Z</time>
      </trkpt>
      <trkpt lat="45.56978" lon="6.0701">
        <ele>1587</ele>
        <time>2021-11-11T10:31:53Z</time>
      </trkpt>
      <trkpt lat="45.56969" lon="6.07012">
        <ele>1589</ele>
        <time>2021-11-11T10:32:11Z</time>
      </trkpt>
      <trkpt lat="45.56963" lon="6.07007">
        <ele>1595</ele>
        <time>2021-11-11T10:32:34Z</time>
      </trkpt>
      <trkpt lat="45.56956" lon="6.07001">
        <ele>1598</ele>
        <time>2021-11-11T10:32:47Z</time>
      </trkpt>
      <trkpt lat="45.5695" lon="6.07002">
        <ele>1600</ele>
        <time>2021-11-11T10:32:59Z</time>
      </trkpt>
      <trkpt lat="45.56943" lon="6.07008">
        <ele>1604</ele>
        <time>2021-11-11T10:33:15Z</time>
      </trkpt>
      <trkpt lat="45.56926" lon="6.07016">
        <ele>1610</ele>
        <time>2021-11-11T10:33:48Z</time>
      </trkpt>
      <trkpt lat="45.56919" lon="6.07016">
        <ele>1610</ele>
        <time>2021-11-11T10:33:57Z</time>
      </trkpt>
      <trkpt lat="45.56913" lon="6.07026">
        <ele>1611</ele>
        <time>2021-11-11T10:34:10Z</time>
      </trkpt>
      <trkpt lat="45.56904" lon="6.07026">
        <ele>1615</ele>
        <time>2021-11-11T10:34:22Z</time>
      </trkpt>
      <trkpt lat="45.56897" lon="6.07022">
        <ele>1616</ele>
        <time>2021-11-11T10:34:32Z</time>
      </trkpt>
      <trkpt lat="45.56886" lon="6.07021">
        <ele>1618</ele>
        <time>2021-11-11T10:34:44Z</time>
      </trkpt>
      <trkpt lat="45.56874" lon="6.07021">
        <ele>1616</ele>
        <time>2021-11-11T10:34:54Z</time>
      </trkpt>
      <trkpt lat="45.56868" lon="6.07023">
        <ele>1616</ele>
        <time>2021-11-11T10:34:59Z</time>
      </trkpt>
      <trkpt lat="45.56862" lon="6.07026">
        <ele>1615</ele>
        <time>2021-11-11T10:35:01Z</time>
      </trkpt>
      <trkpt lat="45.56849" lon="6.07032">
        <ele>1615</ele>
        <time>2021-11-11T10:35:05Z</time>
      </trkpt>
      <trkpt lat="45.5684" lon="6.07037">
        <ele>1614</ele>
        <time>2021-11-11T10:35:10Z</time>
      </trkpt>
      <trkpt lat="45.56835" lon="6.07039">
        <ele>1614</ele>
        <time>2021-11-11T10:35:15Z</time>
      </trkpt>
      <trkpt lat="45.56816" lon="6.07046">
        <ele>1614</ele>
        <time>2021-11-11T10:35:31Z</time>
      </trkpt>
      <trkpt lat="45.56808" lon="6.07046">
        <ele>1615</ele>
        <time>2021-11-11T10:35:39Z</time>
      </trkpt>
      <trkpt lat="45.56803" lon="6.0705">
        <ele>1615</ele>
        <time>2021-11-11T10:35:44Z</time>
      </trkpt>
      <trkpt lat="45.56797" lon="6.07048">
        <ele>1615</ele>
        <time>2021-11-11T10:35:50Z</time>
      </trkpt>
      <trkpt lat="45.56792" lon="6.07046">
        <ele>1616</ele>
        <time>2021-11-11T10:35:54Z</time>
      </trkpt>
      <trkpt lat="45.56786" lon="6.07045">
        <ele>1616</ele>
        <time>2021-11-11T10:35:58Z</time>
      </trkpt>
      <trkpt lat="45.5678" lon="6.07044">
        <ele>1616</ele>
        <time>2021-11-11T10:36:02Z</time>
      </trkpt>
      <trkpt lat="45.56774" lon="6.07043">
        <ele>1617</ele>
        <time>2021-11-11T10:36:07Z</time>
      </trkpt>
      <trkpt lat="45.56765" lon="6.07042">
        <ele>1617</ele>
        <time>2021-11-11T10:36:17Z</time>
      </trkpt>
      <trkpt lat="45.56758" lon="6.07042">
        <ele>1618</ele>
        <time>2021-11-11T10:36:23Z</time>
      </trkpt>
      <trkpt lat="45.56753" lon="6.07041">
        <ele>1618</ele>
        <time>2021-11-11T10:36:27Z</time>
      </trkpt>
      <trkpt lat="45.56741" lon="6.07035">
        <ele>1619</ele>
        <time>2021-11-11T10:36:35Z</time>
      </trkpt>
      <trkpt lat="45.56734" lon="6.07035">
        <ele>1619</ele>
        <time>2021-11-11T10:36:43Z</time>
      </trkpt>
      <trkpt lat="45.56729" lon="6.07034">
        <ele>1620</ele>
        <time>2021-11-11T10:36:48Z</time>
      </trkpt>
      <trkpt lat="45.56721" lon="6.07035">
        <ele>1622</ele>
        <time>2021-11-11T10:36:56Z</time>
      </trkpt>
      <trkpt lat="45.56715" lon="6.07036">
        <ele>1621</ele>
        <time>2021-11-11T10:37:01Z</time>
      </trkpt>
      <trkpt lat="45.56709" lon="6.07036">
        <ele>1622</ele>
        <time>2021-11-11T10:37:06Z</time>
      </trkpt>
      <trkpt lat="45.56703" lon="6.07036">
        <ele>1622</ele>
        <time>2021-11-11T10:37:13Z</time>
      </trkpt>
      <trkpt lat="45.56691" lon="6.07032">
        <ele>1625</ele>
        <time>2021-11-11T10:37:24Z</time>
      </trkpt>
      <trkpt lat="45.56685" lon="6.07027">
        <ele>1625</ele>
        <time>2021-11-11T10:37:32Z</time>
      </trkpt>
      <trkpt lat="45.56681" lon="6.07022">
        <ele>1626</ele>
        <time>2021-11-11T10:37:37Z</time>
      </trkpt>
      <trkpt lat="45.56676" lon="6.07017">
        <ele>1627</ele>
        <time>2021-11-11T10:37:42Z</time>
      </trkpt>
      <trkpt lat="45.56671" lon="6.0701">
        <ele>1628</ele>
        <time>2021-11-11T10:37:47Z</time>
      </trkpt>
      <trkpt lat="45.56667" lon="6.07003">
        <ele>1628</ele>
        <time>2021-11-11T10:37:55Z</time>
      </trkpt>
      <trkpt lat="45.56662" lon="6.06992">
        <ele>1631</ele>
        <time>2021-11-11T10:38:07Z</time>
      </trkpt>
      <trkpt lat="45.56657" lon="6.06977">
        <ele>1632</ele>
        <time>2021-11-11T10:38:19Z</time>
      </trkpt>
      <trkpt lat="45.56654" lon="6.06971">
        <ele>1633</ele>
        <time>2021-11-11T10:38:25Z</time>
      </trkpt>
      <trkpt lat="45.56653" lon="6.06953">
        <ele>1637</ele>
        <time>2021-11-11T10:38:39Z</time>
      </trkpt>
      <trkpt lat="45.56651" lon="6.06944">
        <ele>1636</ele>
        <time>2021-11-11T10:38:45Z</time>
      </trkpt>
      <trkpt lat="45.56651" lon="6.06936">
        <ele>1639</ele>
        <time>2021-11-11T10:38:50Z</time>
      </trkpt>
      <trkpt lat="45.56645" lon="6.06929">
        <ele>1639</ele>
        <time>2021-11-11T10:38:58Z</time>
      </trkpt>
      <trkpt lat="45.56645" lon="6.0692">
        <ele>1640</ele>
        <time>2021-11-11T10:39:06Z</time>
      </trkpt>
      <trkpt lat="45.56647" lon="6.06906">
        <ele>1642</ele>
        <time>2021-11-11T10:39:17Z</time>
      </trkpt>
      <trkpt lat="45.56646" lon="6.06898">
        <ele>1643</ele>
        <time>2021-11-11T10:39:26Z</time>
      </trkpt>
      <trkpt lat="45.56641" lon="6.06886">
        <ele>1644</ele>
        <time>2021-11-11T10:39:38Z</time>
      </trkpt>
      <trkpt lat="45.56641" lon="6.06862">
        <ele>1647</ele>
        <time>2021-11-11T10:40:02Z</time>
      </trkpt>
      <trkpt lat="45.56649" lon="6.06842">
        <ele>1653</ele>
        <time>2021-11-11T10:40:31Z</time>
      </trkpt>
      <trkpt lat="45.5665" lon="6.06832">
        <ele>1656</ele>
        <time>2021-11-11T10:40:46Z</time>
      </trkpt>
      <trkpt lat="45.56648" lon="6.0682">
        <ele>1658</ele>
        <time>2021-11-11T10:41:02Z</time>
      </trkpt>
      <trkpt lat="45.5665" lon="6.06814">
        <ele>1662</ele>
        <time>2021-11-11T10:42:43Z</time>
      </trkpt>
      <trkpt lat="45.56644" lon="6.06811">
        <ele>1661</ele>
        <time>2021-11-11T10:44:13Z</time>
      </trkpt>
      <trkpt lat="45.56638" lon="6.06807">
        <ele>1663</ele>
        <time>2021-11-11T10:44:31Z</time>
      </trkpt>
      <trkpt lat="45.56635" lon="6.068">
        <ele>1664</ele>
        <time>2021-11-11T10:44:43Z</time>
      </trkpt>
      <trkpt lat="45.56631" lon="6.06792">
        <ele>1664</ele>
        <time>2021-11-11T10:44:55Z</time>
      </trkpt>
      <trkpt lat="45.56627" lon="6.06785">
        <ele>1665</ele>
        <time>2021-11-11T10:45:01Z</time>
      </trkpt>
      <trkpt lat="45.56624" lon="6.06775">
        <ele>1664</ele>
        <time>2021-11-11T10:45:11Z</time>
      </trkpt>
      <trkpt lat="45.56622" lon="6.06767">
        <ele>1664</ele>
        <time>2021-11-11T10:45:17Z</time>
      </trkpt>
      <trkpt lat="45.56621" lon="6.06757">
        <ele>1667</ele>
        <time>2021-11-11T10:45:31Z</time>
      </trkpt>
      <trkpt lat="45.56617" lon="6.06746">
        <ele>1666</ele>
        <time>2021-11-11T10:45:44Z</time>
      </trkpt>
      <trkpt lat="45.56613" lon="6.06739">
        <ele>1667</ele>
        <time>2021-11-11T10:45:56Z</time>
      </trkpt>
      <trkpt lat="45.56606" lon="6.06735">
        <ele>1669</ele>
        <time>2021-11-11T10:46:08Z</time>
      </trkpt>
      <trkpt lat="45.56602" lon="6.06723">
        <ele>1668</ele>
        <time>2021-11-11T10:46:20Z</time>
      </trkpt>
      <trkpt lat="45.56601" lon="6.06714">
        <ele>1671</ele>
        <time>2021-11-11T10:46:32Z</time>
      </trkpt>
      <trkpt lat="45.56597" lon="6.06702">
        <ele>1668</ele>
        <time>2021-11-11T10:46:45Z</time>
      </trkpt>
      <trkpt lat="45.56594" lon="6.06695">
        <ele>1673</ele>
        <time>2021-11-11T10:46:53Z</time>
      </trkpt>
      <trkpt lat="45.56594" lon="6.06685">
        <ele>1672</ele>
        <time>2021-11-11T10:47:05Z</time>
      </trkpt>
      <trkpt lat="45.56591" lon="6.06677">
        <ele>1676</ele>
        <time>2021-11-11T10:47:17Z</time>
      </trkpt>
      <trkpt lat="45.56589" lon="6.06669">
        <ele>1675</ele>
        <time>2021-11-11T10:47:27Z</time>
      </trkpt>
      <trkpt lat="45.56595" lon="6.06673">
        <ele>1675</ele>
        <time>2021-11-11T10:48:23Z</time>
      </trkpt>
      <trkpt lat="45.56595" lon="6.0666">
        <ele>1674</ele>
        <time>2021-11-11T10:48:58Z</time>
      </trkpt>
      <trkpt lat="45.56592" lon="6.06659">
        <ele>1672</ele>
        <time>2021-11-11T10:53:22Z</time>
      </trkpt>
      <trkpt lat="45.56591" lon="6.06667">
        <ele>1672</ele>
        <time>2021-11-11T10:55:48Z</time>
      </trkpt>
      <trkpt lat="45.56584" lon="6.06668">
        <ele>1670</ele>
        <time>2021-11-11T10:58:00Z</time>
      </trkpt>
      <trkpt lat="45.56586" lon="6.06666">
        <ele>1671</ele>
        <time>2021-11-11T10:59:54Z</time>
      </trkpt>
      <trkpt lat="45.56587" lon="6.06667">
        <ele>1672</ele>
        <time>2021-11-11T11:15:16Z</time>
      </trkpt>
      <trkpt lat="45.56593" lon="6.06656">
        <ele>1672</ele>
        <time>2021-11-11T11:16:32Z</time>
      </trkpt>
      <trkpt lat="45.56595" lon="6.06662">
        <ele>1667</ele>
        <time>2021-11-11T11:18:43Z</time>
      </trkpt>
      <trkpt lat="45.5659" lon="6.06666">
        <ele>1665</ele>
        <time>2021-11-11T11:18:47Z</time>
      </trkpt>
      <trkpt lat="45.56582" lon="6.06683">
        <ele>1661</ele>
        <time>2021-11-11T11:19:02Z</time>
      </trkpt>
      <trkpt lat="45.56577" lon="6.06687">
        <ele>1660</ele>
        <time>2021-11-11T11:19:07Z</time>
      </trkpt>
      <trkpt lat="45.56574" lon="6.06693">
        <ele>1657</ele>
        <time>2021-11-11T11:19:16Z</time>
      </trkpt>
      <trkpt lat="45.56565" lon="6.06694">
        <ele>1654</ele>
        <time>2021-11-11T11:20:05Z</time>
      </trkpt>
      <trkpt lat="45.56526" lon="6.06667">
        <ele>1636</ele>
        <time>2021-11-11T11:20:48Z</time>
      </trkpt>
      <trkpt lat="45.5651" lon="6.06675">
        <ele>1626</ele>
        <time>2021-11-11T11:21:12Z</time>
      </trkpt>
      <trkpt lat="45.56479" lon="6.06674">
        <ele>1607</ele>
        <time>2021-11-11T11:22:00Z</time>
      </trkpt>
      <trkpt lat="45.56464" lon="6.06669">
        <ele>1600</ele>
        <time>2021-11-11T11:22:25Z</time>
      </trkpt>
      <trkpt lat="45.56426" lon="6.06663">
        <ele>1581</ele>
        <time>2021-11-11T11:23:13Z</time>
      </trkpt>
      <trkpt lat="45.5641" lon="6.06662">
        <ele>1571</ele>
        <time>2021-11-11T11:23:41Z</time>
      </trkpt>
      <trkpt lat="45.56381" lon="6.06658">
        <ele>1555</ele>
        <time>2021-11-11T11:24:26Z</time>
      </trkpt>
      <trkpt lat="45.56342" lon="6.06636">
        <ele>1539</ele>
        <time>2021-11-11T11:25:17Z</time>
      </trkpt>
      <trkpt lat="45.56311" lon="6.06624">
        <ele>1525</ele>
        <time>2021-11-11T11:26:02Z</time>
      </trkpt>
      <trkpt lat="45.56297" lon="6.0661">
        <ele>1518</ele>
        <time>2021-11-11T11:26:27Z</time>
      </trkpt>
      <trkpt lat="45.56265" lon="6.06594">
        <ele>1509</ele>
        <time>2021-11-11T11:27:04Z</time>
      </trkpt>
      <trkpt lat="45.56249" lon="6.06589">
        <ele>1504</ele>
        <time>2021-11-11T11:27:33Z</time>
      </trkpt>
      <trkpt lat="45.56218" lon="6.06567">
        <ele>1491</ele>
        <time>2021-11-11T11:28:21Z</time>
      </trkpt>
      <trkpt lat="45.56177" lon="6.06557">
        <ele>1472</ele>
        <time>2021-11-11T11:29:14Z</time>
      </trkpt>
      <trkpt lat="45.56161" lon="6.06563">
        <ele>1464</ele>
        <time>2021-11-11T11:29:38Z</time>
      </trkpt>
      <trkpt lat="45.56175" lon="6.0652">
        <ele>1457</ele>
        <time>2021-11-11T11:30:11Z</time>
      </trkpt>
      <trkpt lat="45.56189" lon="6.06494">
        <ele>1454</ele>
        <time>2021-11-11T11:30:40Z</time>
      </trkpt>
      <trkpt lat="45.56237" lon="6.06459">
        <ele>1448</ele>
        <time>2021-11-11T11:31:46Z</time>
      </trkpt>
      <trkpt lat="45.56234" lon="6.06455">
        <ele>1433</ele>
        <time>2021-11-11T11:33:02Z</time>
      </trkpt>
      <trkpt lat="45.56264" lon="6.06439">
        <ele>1421</ele>
        <time>2021-11-11T11:34:11Z</time>
      </trkpt>
      <trkpt lat="45.56315" lon="6.06406">
        <ele>1407</ele>
        <time>2021-11-11T11:35:40Z</time>
      </trkpt>
      <trkpt lat="45.56338" lon="6.06357">
        <ele>1406</ele>
        <time>2021-11-11T11:36:33Z</time>
      </trkpt>
      <trkpt lat="45.56341" lon="6.06294">
        <ele>1392</ele>
        <time>2021-11-11T11:37:32Z</time>
      </trkpt>
      <trkpt lat="45.56386" lon="6.0623">
        <ele>1377</ele>
        <time>2021-11-11T11:38:28Z</time>
      </trkpt>
      <trkpt lat="45.56403" lon="6.06203">
        <ele>1372</ele>
        <time>2021-11-11T11:38:56Z</time>
      </trkpt>
      <trkpt lat="45.56432" lon="6.06174">
        <ele>1357</ele>
        <time>2021-11-11T11:40:11Z</time>
      </trkpt>
      <trkpt lat="45.56462" lon="6.06157">
        <ele>1352</ele>
        <time>2021-11-11T11:40:50Z</time>
      </trkpt>
      <trkpt lat="45.5651" lon="6.06097">
        <ele>1339</ele>
        <time>2021-11-11T11:41:45Z</time>
      </trkpt>
      <trkpt lat="45.56535" lon="6.06075">
        <ele>1335</ele>
        <time>2021-11-11T11:42:07Z</time>
      </trkpt>
      <trkpt lat="45.56552" lon="6.06047">
        <ele>1334</ele>
        <time>2021-11-11T11:42:35Z</time>
      </trkpt>
      <trkpt lat="45.56584" lon="6.0602">
        <ele>1338</ele>
        <time>2021-11-11T11:43:09Z</time>
      </trkpt>
      <trkpt lat="45.56611" lon="6.06013">
        <ele>1335</ele>
        <time>2021-11-11T11:43:32Z</time>
      </trkpt>
      <trkpt lat="45.56626" lon="6.05977">
        <ele>1323</ele>
        <time>2021-11-11T11:44:15Z</time>
      </trkpt>
      <trkpt lat="45.56664" lon="6.05972">
        <ele>1317</ele>
        <time>2021-11-11T11:50:17Z</time>
      </trkpt>
      <trkpt lat="45.56686" lon="6.05944">
        <ele>1310</ele>
        <time>2021-11-11T11:50:39Z</time>
      </trkpt>
      <trkpt lat="45.56726" lon="6.05916">
        <ele>1305</ele>
        <time>2021-11-11T11:51:44Z</time>
      </trkpt>
      <trkpt lat="45.56759" lon="6.05878">
        <ele>1303</ele>
        <time>2021-11-11T11:52:18Z</time>
      </trkpt>
      <trkpt lat="45.56787" lon="6.05874">
        <ele>1304</ele>
        <time>2021-11-11T11:52:39Z</time>
      </trkpt>
      <trkpt lat="45.5682" lon="6.05903">
        <ele>1296</ele>
        <time>2021-11-11T11:53:23Z</time>
      </trkpt>
      <trkpt lat="45.56861" lon="6.05936">
        <ele>1287</ele>
        <time>2021-11-11T11:53:59Z</time>
      </trkpt>
      <trkpt lat="45.56873" lon="6.0595">
        <ele>1285</ele>
        <time>2021-11-11T11:54:13Z</time>
      </trkpt>
      <trkpt lat="45.56881" lon="6.05967">
        <ele>1283</ele>
        <time>2021-11-11T11:54:22Z</time>
      </trkpt>
      <trkpt lat="45.56897" lon="6.05981">
        <ele>1281</ele>
        <time>2021-11-11T11:54:36Z</time>
      </trkpt>
      <trkpt lat="45.56906" lon="6.05994">
        <ele>1277</ele>
        <time>2021-11-11T11:54:51Z</time>
      </trkpt>
      <trkpt lat="45.56938" lon="6.06051">
        <ele>1270</ele>
        <time>2021-11-11T11:55:34Z</time>
      </trkpt>
      <trkpt lat="45.56948" lon="6.06069">
        <ele>1266</ele>
        <time>2021-11-11T11:55:48Z</time>
      </trkpt>
      <trkpt lat="45.56969" lon="6.06101">
        <ele>1260</ele>
        <time>2021-11-11T11:56:19Z</time>
      </trkpt>
      <trkpt lat="45.56993" lon="6.06128">
        <ele>1258</ele>
        <time>2021-11-11T11:56:42Z</time>
      </trkpt>
      <trkpt lat="45.57021" lon="6.06141">
        <ele>1258</ele>
        <time>2021-11-11T11:57:01Z</time>
      </trkpt>
      <trkpt lat="45.57069" lon="6.06185">
        <ele>1247</ele>
        <time>2021-11-11T11:57:55Z</time>
      </trkpt>
      <trkpt lat="45.57115" lon="6.06257">
        <ele>1236</ele>
        <time>2021-11-11T11:59:38Z</time>
      </trkpt>
      <trkpt lat="45.57145" lon="6.06252">
        <ele>1220</ele>
        <time>2021-11-11T12:00:37Z</time>
      </trkpt>
      <trkpt lat="45.57178" lon="6.06267">
        <ele>1208</ele>
        <time>2021-11-11T12:01:20Z</time>
      </trkpt>
      <trkpt lat="45.57214" lon="6.06287">
        <ele>1197</ele>
        <time>2021-11-11T12:01:55Z</time>
      </trkpt>
      <trkpt lat="45.57245" lon="6.06295">
        <ele>1192</ele>
        <time>2021-11-11T12:02:22Z</time>
      </trkpt>
      <trkpt lat="45.57287" lon="6.06321">
        <ele>1186</ele>
        <time>2021-11-11T12:04:33Z</time>
      </trkpt>
      <trkpt lat="45.57322" lon="6.06326">
        <ele>1176</ele>
        <time>2021-11-11T12:05:27Z</time>
      </trkpt>
      <trkpt lat="45.57358" lon="6.06357">
        <ele>1172</ele>
        <time>2021-11-11T12:05:58Z</time>
      </trkpt>
      <trkpt lat="45.574" lon="6.06415">
        <ele>1160</ele>
        <time>2021-11-11T12:06:47Z</time>
      </trkpt>
      <trkpt lat="45.57423" lon="6.06437">
        <ele>1157</ele>
        <time>2021-11-11T12:07:38Z</time>
      </trkpt>
      <trkpt lat="45.57477" lon="6.06474">
        <ele>1148</ele>
        <time>2021-11-11T12:08:38Z</time>
      </trkpt>
      <trkpt lat="45.57538" lon="6.06522">
        <ele>1141</ele>
        <time>2021-11-11T12:09:36Z</time>
      </trkpt>
      <trkpt lat="45.57564" lon="6.06544">
        <ele>1141</ele>
        <time>2021-11-11T12:09:59Z</time>
      </trkpt>
      <trkpt lat="45.5759" lon="6.06561">
        <ele>1145</ele>
        <time>2021-11-11T12:10:27Z</time>
      </trkpt>
      <trkpt lat="45.57612" lon="6.06586">
        <ele>1146</ele>
        <time>2021-11-11T12:10:54Z</time>
      </trkpt>
      <trkpt lat="45.57626" lon="6.06595">
        <ele>1146</ele>
        <time>2021-11-11T12:11:11Z</time>
      </trkpt>
      <trkpt lat="45.57644" lon="6.06587">
        <ele>1143</ele>
        <time>2021-11-11T12:12:06Z</time>
      </trkpt>
      <trkpt lat="45.57681" lon="6.06582">
        <ele>1140</ele>
        <time>2021-11-11T12:12:40Z</time>
      </trkpt>
      <trkpt lat="45.57696" lon="6.06579">
        <ele>1139</ele>
        <time>2021-11-11T12:12:50Z</time>
      </trkpt>
      <trkpt lat="45.57712" lon="6.06582">
        <ele>1137</ele>
        <time>2021-11-11T12:13:00Z</time>
      </trkpt>
      <trkpt lat="45.57726" lon="6.06581">
        <ele>1137</ele>
        <time>2021-11-11T12:13:11Z</time>
      </trkpt>
      <trkpt lat="45.57741" lon="6.06586">
        <ele>1137</ele>
        <time>2021-11-11T12:13:25Z</time>
      </trkpt>
      <trkpt lat="45.57754" lon="6.06599">
        <ele>1133</ele>
        <time>2021-11-11T12:13:42Z</time>
      </trkpt>
      <trkpt lat="45.57777" lon="6.06601">
        <ele>1127</ele>
        <time>2021-11-11T12:14:34Z</time>
      </trkpt>
      <trkpt lat="45.57821" lon="6.0659">
        <ele>1112</ele>
        <time>2021-11-11T12:15:26Z</time>
      </trkpt>
      <trkpt lat="45.57838" lon="6.06591">
        <ele>1109</ele>
        <time>2021-11-11T12:15:40Z</time>
      </trkpt>
      <trkpt lat="45.57881" lon="6.06566">
        <ele>1102</ele>
        <time>2021-11-11T12:16:12Z</time>
      </trkpt>
      <trkpt lat="45.57894" lon="6.0656">
        <ele>1101</ele>
        <time>2021-11-11T12:16:24Z</time>
      </trkpt>
      <trkpt lat="45.57909" lon="6.0655">
        <ele>1099</ele>
        <time>2021-11-11T12:16:35Z</time>
      </trkpt>
      <trkpt lat="45.57924" lon="6.06543">
        <ele>1099</ele>
        <time>2021-11-11T12:16:45Z</time>
      </trkpt>
      <trkpt lat="45.57937" lon="6.06533">
        <ele>1097</ele>
        <time>2021-11-11T12:16:55Z</time>
      </trkpt>
      <trkpt lat="45.57951" lon="6.06525">
        <ele>1099</ele>
        <time>2021-11-11T12:17:08Z</time>
      </trkpt>
      <trkpt lat="45.57962" lon="6.06511">
        <ele>1096</ele>
        <time>2021-11-11T12:17:39Z</time>
      </trkpt>
      <trkpt lat="45.57976" lon="6.06499">
        <ele>1093</ele>
        <time>2021-11-11T12:18:01Z</time>
      </trkpt>
      <trkpt lat="45.57986" lon="6.06517">
        <ele>1091</ele>
        <time>2021-11-11T12:18:12Z</time>
      </trkpt>
      <trkpt lat="45.57992" lon="6.06535">
        <ele>1090</ele>
        <time>2021-11-11T12:18:25Z</time>
      </trkpt>
      <trkpt lat="45.58009" lon="6.06564">
        <ele>1085</ele>
        <time>2021-11-11T12:18:57Z</time>
      </trkpt>
      <trkpt lat="45.5803" lon="6.0655">
        <ele>1080</ele>
        <time>2021-11-11T12:19:18Z</time>
      </trkpt>
      <trkpt lat="45.58046" lon="6.0653">
        <ele>1075</ele>
        <time>2021-11-11T12:20:58Z</time>
      </trkpt>
      <trkpt lat="45.58043" lon="6.06508">
        <ele>1072</ele>
        <time>2021-11-11T12:21:12Z</time>
      </trkpt>
      <trkpt lat="45.58027" lon="6.06471">
        <ele>1067</ele>
        <time>2021-11-11T12:21:29Z</time>
      </trkpt>
      <trkpt lat="45.58016" lon="6.06429">
        <ele>1065</ele>
        <time>2021-11-11T12:21:53Z</time>
      </trkpt>
      <trkpt lat="45.58031" lon="6.064">
        <ele>1058</ele>
        <time>2021-11-11T12:22:26Z</time>
      </trkpt>
      <trkpt lat="45.58045" lon="6.06389">
        <ele>1057</ele>
        <time>2021-11-11T12:22:37Z</time>
      </trkpt>
      <trkpt lat="45.58066" lon="6.0636">
        <ele>1053</ele>
        <time>2021-11-11T12:22:58Z</time>
      </trkpt>
      <trkpt lat="45.58082" lon="6.06354">
        <ele>1052</ele>
        <time>2021-11-11T12:23:10Z</time>
      </trkpt>
      <trkpt lat="45.58096" lon="6.06344">
        <ele>1049</ele>
        <time>2021-11-11T12:23:19Z</time>
      </trkpt>
      <trkpt lat="45.58107" lon="6.06331">
        <ele>1050</ele>
        <time>2021-11-11T12:23:31Z</time>
      </trkpt>
      <trkpt lat="45.58118" lon="6.06317">
        <ele>1049</ele>
        <time>2021-11-11T12:23:45Z</time>
      </trkpt>
      <trkpt lat="45.58134" lon="6.06314">
        <ele>1046</ele>
        <time>2021-11-11T12:24:01Z</time>
      </trkpt>
      <trkpt lat="45.58148" lon="6.0632">
        <ele>1043</ele>
        <time>2021-11-11T12:24:11Z</time>
      </trkpt>
      <trkpt lat="45.58211" lon="6.06306">
        <ele>1039</ele>
        <time>2021-11-11T12:24:55Z</time>
      </trkpt>
      <trkpt lat="45.5816" lon="6.0626">
        <ele>1040</ele>
        <time>2021-11-11T12:25:55Z</time>
      </trkpt>
      <trkpt lat="45.58096" lon="6.0621">
        <ele>1048</ele>
        <time>2021-11-11T12:27:04Z</time>
      </trkpt>
      <trkpt lat="45.58145" lon="6.06216">
        <ele>1056</ele>
        <time>2021-11-11T12:28:17Z</time>
      </trkpt>
      <trkpt lat="45.58174" lon="6.06224">
        <ele>1059</ele>
        <time>2021-11-11T12:28:47Z</time>
      </trkpt>
      <trkpt lat="45.5816" lon="6.06216">
        <ele>1059</ele>
        <time>2021-11-11T12:31:10Z</time>
      </trkpt>
      <trkpt lat="45.58086" lon="6.06191">
        <ele>1053</ele>
        <time>2021-11-11T12:31:18Z</time>
      </trkpt>
      <trkpt lat="45.58056" lon="6.06178">
        <ele>1051</ele>
        <time>2021-11-11T12:31:21Z</time>
      </trkpt>
      <trkpt lat="45.58038" lon="6.06135">
        <ele>1045</ele>
        <time>2021-11-11T12:31:25Z</time>
      </trkpt>
      <trkpt lat="45.58016" lon="6.0609">
        <ele>1040</ele>
        <time>2021-11-11T12:31:29Z</time>
      </trkpt>
      <trkpt lat="45.57989" lon="6.06068">
        <ele>1040</ele>
        <time>2021-11-11T12:31:32Z</time>
      </trkpt>
      <trkpt lat="45.57959" lon="6.06046">
        <ele>1036</ele>
        <time>2021-11-11T12:31:35Z</time>
      </trkpt>
      <trkpt lat="45.5791" lon="6.0597">
        <ele>1028</ele>
        <time>2021-11-11T12:31:41Z</time>
      </trkpt>
      <trkpt lat="45.57888" lon="6.05888">
        <ele>1023</ele>
        <time>2021-11-11T12:31:45Z</time>
      </trkpt>
      <trkpt lat="45.57884" lon="6.05843">
        <ele>1020</ele>
        <time>2021-11-11T12:31:47Z</time>
      </trkpt>
      <trkpt lat="45.5805" lon="6.05199">
        <ele>969</ele>
        <time>2021-11-11T12:32:20Z</time>
      </trkpt>
      <trkpt lat="45.58069" lon="6.05163">
        <ele>966</ele>
        <time>2021-11-11T12:32:23Z</time>
      </trkpt>
      <trkpt lat="45.58034" lon="6.05182">
        <ele>960</ele>
        <time>2021-11-11T12:32:33Z</time>
      </trkpt>
      <trkpt lat="45.57914" lon="6.05408">
        <ele>944</ele>
        <time>2021-11-11T12:32:49Z</time>
      </trkpt>
      <trkpt lat="45.57905" lon="6.0538">
        <ele>930</ele>
        <time>2021-11-11T12:33:03Z</time>
      </trkpt>
      <trkpt lat="45.57967" lon="6.05135">
        <ele>918</ele>
        <time>2021-11-11T12:33:18Z</time>
      </trkpt>
      <trkpt lat="45.58005" lon="6.05055">
        <ele>910</ele>
        <time>2021-11-11T12:33:24Z</time>
      </trkpt>
      <trkpt lat="45.58033" lon="6.0502">
        <ele>907</ele>
        <time>2021-11-11T12:33:27Z</time>
      </trkpt>
      <trkpt lat="45.58063" lon="6.05004">
        <ele>901</ele>
        <time>2021-11-11T12:33:31Z</time>
      </trkpt>
      <trkpt lat="45.58068" lon="6.04933">
        <ele>896</ele>
        <time>2021-11-11T12:33:37Z</time>
      </trkpt>
      <trkpt lat="45.58071" lon="6.04883">
        <ele>893</ele>
        <time>2021-11-11T12:33:40Z</time>
      </trkpt>
      <trkpt lat="45.58088" lon="6.04844">
        <ele>889</ele>
        <time>2021-11-11T12:33:43Z</time>
      </trkpt>
      <trkpt lat="45.58105" lon="6.048">
        <ele>885</ele>
        <time>2021-11-11T12:33:46Z</time>
      </trkpt>
      <trkpt lat="45.58107" lon="6.04749">
        <ele>883</ele>
        <time>2021-11-11T12:33:49Z</time>
      </trkpt>
      <trkpt lat="45.58211" lon="6.04544">
        <ele>865</ele>
        <time>2021-11-11T12:34:04Z</time>
      </trkpt>
      <trkpt lat="45.58233" lon="6.04502">
        <ele>863</ele>
        <time>2021-11-11T12:34:07Z</time>
      </trkpt>
      <trkpt lat="45.58293" lon="6.0444">
        <ele>855</ele>
        <time>2021-11-11T12:34:13Z</time>
      </trkpt>
      <trkpt lat="45.58359" lon="6.04402">
        <ele>846</ele>
        <time>2021-11-11T12:34:21Z</time>
      </trkpt>
      <trkpt lat="45.58389" lon="6.04369">
        <ele>839</ele>
        <time>2021-11-11T12:34:25Z</time>
      </trkpt>
      <trkpt lat="45.58393" lon="6.04328">
        <ele>840</ele>
        <time>2021-11-11T12:34:28Z</time>
      </trkpt>
      <trkpt lat="45.58439" lon="6.04301">
        <ele>830</ele>
        <time>2021-11-11T12:34:35Z</time>
      </trkpt>
      <trkpt lat="45.5846" lon="6.04275">
        <ele>827</ele>
        <time>2021-11-11T12:34:39Z</time>
      </trkpt>
      <trkpt lat="45.58444" lon="6.04203">
        <ele>826</ele>
        <time>2021-11-11T12:34:45Z</time>
      </trkpt>
      <trkpt lat="45.58418" lon="6.04148">
        <ele>822</ele>
        <time>2021-11-11T12:34:49Z</time>
      </trkpt>
      <trkpt lat="45.58406" lon="6.04112">
        <ele>820</ele>
        <time>2021-11-11T12:34:52Z</time>
      </trkpt>
      <trkpt lat="45.58434" lon="6.04069">
        <ele>814</ele>
        <time>2021-11-11T12:34:56Z</time>
      </trkpt>
      <trkpt lat="45.5847" lon="6.04065">
        <ele>809</ele>
        <time>2021-11-11T12:35:00Z</time>
      </trkpt>
      <trkpt lat="45.58498" lon="6.04038">
        <ele>805</ele>
        <time>2021-11-11T12:35:04Z</time>
      </trkpt>
      <trkpt lat="45.58488" lon="6.03999">
        <ele>805</ele>
        <time>2021-11-11T12:35:08Z</time>
      </trkpt>
      <trkpt lat="45.58507" lon="6.03953">
        <ele>800</ele>
        <time>2021-11-11T12:35:13Z</time>
      </trkpt>
      <trkpt lat="45.58537" lon="6.03923">
        <ele>797</ele>
        <time>2021-11-11T12:35:16Z</time>
      </trkpt>
      <trkpt lat="45.5857" lon="6.03904">
        <ele>796</ele>
        <time>2021-11-11T12:35:19Z</time>
      </trkpt>
      <trkpt lat="45.58601" lon="6.03897">
        <ele>792</ele>
        <time>2021-11-11T12:35:22Z</time>
      </trkpt>
      <trkpt lat="45.58619" lon="6.03858">
        <ele>792</ele>
        <time>2021-11-11T12:35:26Z</time>
      </trkpt>
      <trkpt lat="45.58634" lon="6.0381">
        <ele>790</ele>
        <time>2021-11-11T12:35:30Z</time>
      </trkpt>
      <trkpt lat="45.58655" lon="6.03774">
        <ele>788</ele>
        <time>2021-11-11T12:35:34Z</time>
      </trkpt>
      <trkpt lat="45.58623" lon="6.03779">
        <ele>784</ele>
        <time>2021-11-11T12:35:47Z</time>
      </trkpt>
      <trkpt lat="45.58613" lon="6.03818">
        <ele>783</ele>
        <time>2021-11-11T12:35:50Z</time>
      </trkpt>
      <trkpt lat="45.58587" lon="6.03841">
        <ele>780</ele>
        <time>2021-11-11T12:35:53Z</time>
      </trkpt>
      <trkpt lat="45.5848" lon="6.03878">
        <ele>776</ele>
        <time>2021-11-11T12:36:02Z</time>
      </trkpt>
      <trkpt lat="45.58452" lon="6.03904">
        <ele>772</ele>
        <time>2021-11-11T12:36:05Z</time>
      </trkpt>
      <trkpt lat="45.58432" lon="6.03939">
        <ele>771</ele>
        <time>2021-11-11T12:36:08Z</time>
      </trkpt>
      <trkpt lat="45.58398" lon="6.03955">
        <ele>767</ele>
        <time>2021-11-11T12:36:12Z</time>
      </trkpt>
      <trkpt lat="45.58363" lon="6.03959">
        <ele>767</ele>
        <time>2021-11-11T12:36:15Z</time>
      </trkpt>
      <trkpt lat="45.58331" lon="6.03943">
        <ele>767</ele>
        <time>2021-11-11T12:36:18Z</time>
      </trkpt>
      <trkpt lat="45.58367" lon="6.03908">
        <ele>762</ele>
        <time>2021-11-11T12:36:25Z</time>
      </trkpt>
      <trkpt lat="45.5839" lon="6.03875">
        <ele>762</ele>
        <time>2021-11-11T12:36:29Z</time>
      </trkpt>
      <trkpt lat="45.58408" lon="6.03839">
        <ele>761</ele>
        <time>2021-11-11T12:36:32Z</time>
      </trkpt>
      <trkpt lat="45.58462" lon="6.03788">
        <ele>754</ele>
        <time>2021-11-11T12:36:38Z</time>
      </trkpt>
      <trkpt lat="45.58485" lon="6.03756">
        <ele>750</ele>
        <time>2021-11-11T12:36:41Z</time>
      </trkpt>
      <trkpt lat="45.5849" lon="6.03713">
        <ele>750</ele>
        <time>2021-11-11T12:36:44Z</time>
      </trkpt>
      <trkpt lat="45.58509" lon="6.03619">
        <ele>745</ele>
        <time>2021-11-11T12:36:50Z</time>
      </trkpt>
      <trkpt lat="45.58526" lon="6.03572">
        <ele>742</ele>
        <time>2021-11-11T12:36:53Z</time>
      </trkpt>
      <trkpt lat="45.58548" lon="6.03537">
        <ele>738</ele>
        <time>2021-11-11T12:36:56Z</time>
      </trkpt>
      <trkpt lat="45.58575" lon="6.03503">
        <ele>732</ele>
        <time>2021-11-11T12:37:00Z</time>
      </trkpt>
      <trkpt lat="45.58535" lon="6.03503">
        <ele>730</ele>
        <time>2021-11-11T12:37:07Z</time>
      </trkpt>
      <trkpt lat="45.58404" lon="6.03615">
        <ele>722</ele>
        <time>2021-11-11T12:37:19Z</time>
      </trkpt>
      <trkpt lat="45.5822" lon="6.03656">
        <ele>708</ele>
        <time>2021-11-11T12:37:34Z</time>
      </trkpt>
      <trkpt lat="45.5819" lon="6.0364">
        <ele>703</ele>
        <time>2021-11-11T12:37:38Z</time>
      </trkpt>
      <trkpt lat="45.58179" lon="6.03595">
        <ele>701</ele>
        <time>2021-11-11T12:37:42Z</time>
      </trkpt>
      <trkpt lat="45.58206" lon="6.03557">
        <ele>698</ele>
        <time>2021-11-11T12:37:46Z</time>
      </trkpt>
      <trkpt lat="45.58335" lon="6.03453">
        <ele>693</ele>
        <time>2021-11-11T12:37:58Z</time>
      </trkpt>
      <trkpt lat="45.58622" lon="6.03022">
        <ele>665</ele>
        <time>2021-11-11T12:38:29Z</time>
      </trkpt>
      <trkpt lat="45.58749" lon="6.02903">
        <ele>658</ele>
        <time>2021-11-11T12:38:40Z</time>
      </trkpt>
      <trkpt lat="45.58887" lon="6.02859">
        <ele>649</ele>
        <time>2021-11-11T12:38:53Z</time>
      </trkpt>
      <trkpt lat="45.59161" lon="6.02698">
        <ele>634</ele>
        <time>2021-11-11T12:39:18Z</time>
      </trkpt>
      <trkpt lat="45.59218" lon="6.02626">
        <ele>628</ele>
        <time>2021-11-11T12:39:24Z</time>
      </trkpt>
      <trkpt lat="45.59242" lon="6.02593">
        <ele>620</ele>
        <time>2021-11-11T12:39:27Z</time>
      </trkpt>
      <trkpt lat="45.5924" lon="6.0255">
        <ele>619</ele>
        <time>2021-11-11T12:39:30Z</time>
      </trkpt>
      <trkpt lat="45.59222" lon="6.02505">
        <ele>618</ele>
        <time>2021-11-11T12:39:33Z</time>
      </trkpt>
      <trkpt lat="45.59202" lon="6.02461">
        <ele>614</ele>
        <time>2021-11-11T12:39:36Z</time>
      </trkpt>
      <trkpt lat="45.59177" lon="6.02427">
        <ele>609</ele>
        <time>2021-11-11T12:39:39Z</time>
      </trkpt>
      <trkpt lat="45.59145" lon="6.02421">
        <ele>607</ele>
        <time>2021-11-11T12:39:42Z</time>
      </trkpt>
      <trkpt lat="45.58998" lon="6.02304">
        <ele>588</ele>
        <time>2021-11-11T12:39:57Z</time>
      </trkpt>
      <trkpt lat="45.58961" lon="6.0231">
        <ele>587</ele>
        <time>2021-11-11T12:40:01Z</time>
      </trkpt>
      <trkpt lat="45.58931" lon="6.0232">
        <ele>583</ele>
        <time>2021-11-11T12:40:04Z</time>
      </trkpt>
      <trkpt lat="45.58868" lon="6.02271">
        <ele>574</ele>
        <time>2021-11-11T12:40:10Z</time>
      </trkpt>
      <trkpt lat="45.58832" lon="6.02261">
        <ele>571</ele>
        <time>2021-11-11T12:40:14Z</time>
      </trkpt>
      <trkpt lat="45.58799" lon="6.02244">
        <ele>568</ele>
        <time>2021-11-11T12:40:18Z</time>
      </trkpt>
      <trkpt lat="45.58821" lon="6.02199">
        <ele>559</ele>
        <time>2021-11-11T12:40:24Z</time>
      </trkpt>
      <trkpt lat="45.58886" lon="6.02237">
        <ele>552</ele>
        <time>2021-11-11T12:40:30Z</time>
      </trkpt>
      <trkpt lat="45.58919" lon="6.02241">
        <ele>550</ele>
        <time>2021-11-11T12:40:33Z</time>
      </trkpt>
      <trkpt lat="45.58944" lon="6.02212">
        <ele>549</ele>
        <time>2021-11-11T12:40:36Z</time>
      </trkpt>
      <trkpt lat="45.58976" lon="6.0219">
        <ele>543</ele>
        <time>2021-11-11T12:40:40Z</time>
      </trkpt>
      <trkpt lat="45.59005" lon="6.02187">
        <ele>541</ele>
        <time>2021-11-11T12:40:43Z</time>
      </trkpt>
      <trkpt lat="45.59056" lon="6.02192">
        <ele>537</ele>
        <time>2021-11-11T12:40:47Z</time>
      </trkpt>
      <trkpt lat="45.5912" lon="6.02182">
        <ele>534</ele>
        <time>2021-11-11T12:40:52Z</time>
      </trkpt>
      <trkpt lat="45.59152" lon="6.02185">
        <ele>527</ele>
        <time>2021-11-11T12:40:55Z</time>
      </trkpt>
      <trkpt lat="45.59178" lon="6.02162">
        <ele>525</ele>
        <time>2021-11-11T12:40:59Z</time>
      </trkpt>
      <trkpt lat="45.59179" lon="6.02117">
        <ele>525</ele>
        <time>2021-11-11T12:41:03Z</time>
      </trkpt>
      <trkpt lat="45.59166" lon="6.02072">
        <ele>525</ele>
        <time>2021-11-11T12:41:07Z</time>
      </trkpt>
      <trkpt lat="45.59079" lon="6.02006">
        <ele>536</ele>
        <time>2021-11-11T12:41:16Z</time>
      </trkpt>
      <trkpt lat="45.59051" lon="6.01986">
        <ele>540</ele>
        <time>2021-11-11T12:41:19Z</time>
      </trkpt>
      <trkpt lat="45.59029" lon="6.01942">
        <ele>543</ele>
        <time>2021-11-11T12:41:23Z</time>
      </trkpt>
      <trkpt lat="45.59001" lon="6.01919">
        <ele>548</ele>
        <time>2021-11-11T12:41:27Z</time>
      </trkpt>
      <trkpt lat="45.58823" lon="6.01821">
        <ele>570</ele>
        <time>2021-11-11T12:41:42Z</time>
      </trkpt>
      <trkpt lat="45.58844" lon="6.01803">
        <ele>576</ele>
        <time>2021-11-11T12:41:53Z</time>
      </trkpt>
      <trkpt lat="45.58877" lon="6.01817">
        <ele>580</ele>
        <time>2021-11-11T12:41:56Z</time>
      </trkpt>
      <trkpt lat="45.5891" lon="6.01835">
        <ele>582</ele>
        <time>2021-11-11T12:41:59Z</time>
      </trkpt>
      <trkpt lat="45.59001" lon="6.0186">
        <ele>592</ele>
        <time>2021-11-11T12:42:07Z</time>
      </trkpt>
      <trkpt lat="45.59036" lon="6.01867">
        <ele>595</ele>
        <time>2021-11-11T12:42:11Z</time>
      </trkpt>
      <trkpt lat="45.59031" lon="6.01825">
        <ele>602</ele>
        <time>2021-11-11T12:42:22Z</time>
      </trkpt>
      <trkpt lat="45.58906" lon="6.01389">
        <ele>622</ele>
        <time>2021-11-11T12:42:48Z</time>
      </trkpt>
      <trkpt lat="45.58839" lon="6.01297">
        <ele>621</ele>
        <time>2021-11-11T12:42:55Z</time>
      </trkpt>
      <trkpt lat="45.58746" lon="6.01169">
        <ele>616</ele>
        <time>2021-11-11T12:43:05Z</time>
      </trkpt>
      <trkpt lat="45.58704" lon="6.01116">
        <ele>615</ele>
        <time>2021-11-11T12:43:10Z</time>
      </trkpt>
      <trkpt lat="45.58644" lon="6.01071">
        <ele>612</ele>
        <time>2021-11-11T12:43:15Z</time>
      </trkpt>
      <trkpt lat="45.58617" lon="6.01036">
        <ele>613</ele>
        <time>2021-11-11T12:43:18Z</time>
      </trkpt>
      <trkpt lat="45.58578" lon="6.00493">
        <ele>601</ele>
        <time>2021-11-11T12:43:43Z</time>
      </trkpt>
      <trkpt lat="45.58578" lon="6.00437">
        <ele>600</ele>
        <time>2021-11-11T12:43:46Z</time>
      </trkpt>
      <trkpt lat="45.58583" lon="6.00265">
        <ele>595</ele>
        <time>2021-11-11T12:43:55Z</time>
      </trkpt>
      <trkpt lat="45.58579" lon="5.99972">
        <ele>588</ele>
        <time>2021-11-11T12:44:11Z</time>
      </trkpt>
      <trkpt lat="45.58576" lon="5.99856">
        <ele>590</ele>
        <time>2021-11-11T12:44:17Z</time>
      </trkpt>
      <trkpt lat="45.58584" lon="5.99713">
        <ele>587</ele>
        <time>2021-11-11T12:44:26Z</time>
      </trkpt>
      <trkpt lat="45.58594" lon="5.99668">
        <ele>585</ele>
        <time>2021-11-11T12:44:36Z</time>
      </trkpt>
      <trkpt lat="45.58591" lon="5.99482">
        <ele>582</ele>
        <time>2021-11-11T12:44:55Z</time>
      </trkpt>
      <trkpt lat="45.58583" lon="5.99392">
        <ele>578</ele>
        <time>2021-11-11T12:45:04Z</time>
      </trkpt>
      <trkpt lat="45.58579" lon="5.99246">
        <ele>573</ele>
        <time>2021-11-11T12:45:17Z</time>
      </trkpt>
      <trkpt lat="45.58573" lon="5.99205">
        <ele>572</ele>
        <time>2021-11-11T12:45:20Z</time>
      </trkpt>
      <trkpt lat="45.58596" lon="5.9901">
        <ele>562</ele>
        <time>2021-11-11T12:45:36Z</time>
      </trkpt>
      <trkpt lat="45.586" lon="5.98779">
        <ele>546</ele>
        <time>2021-11-11T12:45:52Z</time>
      </trkpt>
      <trkpt lat="45.58593" lon="5.98732">
        <ele>543</ele>
        <time>2021-11-11T12:45:56Z</time>
      </trkpt>
      <trkpt lat="45.58559" lon="5.98654">
        <ele>537</ele>
        <time>2021-11-11T12:46:04Z</time>
      </trkpt>
      <trkpt lat="45.58544" lon="5.98604">
        <ele>533</ele>
        <time>2021-11-11T12:46:08Z</time>
      </trkpt>
      <trkpt lat="45.58544" lon="5.9856">
        <ele>530</ele>
        <time>2021-11-11T12:46:11Z</time>
      </trkpt>
      <trkpt lat="45.58568" lon="5.98424">
        <ele>523</ele>
        <time>2021-11-11T12:46:20Z</time>
      </trkpt>
      <trkpt lat="45.58572" lon="5.98337">
        <ele>518</ele>
        <time>2021-11-11T12:46:26Z</time>
      </trkpt>
      <trkpt lat="45.5857" lon="5.98285">
        <ele>512</ele>
        <time>2021-11-11T12:46:30Z</time>
      </trkpt>
      <trkpt lat="45.58546" lon="5.98258">
        <ele>509</ele>
        <time>2021-11-11T12:46:34Z</time>
      </trkpt>
      <trkpt lat="45.58513" lon="5.98284">
        <ele>506</ele>
        <time>2021-11-11T12:46:39Z</time>
      </trkpt>
      <trkpt lat="45.58479" lon="5.98375">
        <ele>500</ele>
        <time>2021-11-11T12:46:46Z</time>
      </trkpt>
      <trkpt lat="45.58465" lon="5.98352">
        <ele>493</ele>
        <time>2021-11-11T12:46:58Z</time>
      </trkpt>
      <trkpt lat="45.58446" lon="5.98245">
        <ele>492</ele>
        <time>2021-11-11T12:47:05Z</time>
      </trkpt>
      <trkpt lat="45.58405" lon="5.98117">
        <ele>485</ele>
        <time>2021-11-11T12:47:12Z</time>
      </trkpt>
      <trkpt lat="45.584" lon="5.98062">
        <ele>481</ele>
        <time>2021-11-11T12:47:15Z</time>
      </trkpt>
      <trkpt lat="45.58412" lon="5.98016">
        <ele>477</ele>
        <time>2021-11-11T12:47:18Z</time>
      </trkpt>
      <trkpt lat="45.58468" lon="5.97982">
        <ele>469</ele>
        <time>2021-11-11T12:47:24Z</time>
      </trkpt>
      <trkpt lat="45.58498" lon="5.97967">
        <ele>467</ele>
        <time>2021-11-11T12:47:27Z</time>
      </trkpt>
      <trkpt lat="45.58524" lon="5.97937">
        <ele>466</ele>
        <time>2021-11-11T12:47:31Z</time>
      </trkpt>
      <trkpt lat="45.58507" lon="5.97925">
        <ele>459</ele>
        <time>2021-11-11T12:47:45Z</time>
      </trkpt>
      <trkpt lat="45.58445" lon="5.97903">
        <ele>454</ele>
        <time>2021-11-11T12:47:51Z</time>
      </trkpt>
      <trkpt lat="45.58377" lon="5.97904">
        <ele>451</ele>
        <time>2021-11-11T12:47:57Z</time>
      </trkpt>
      <trkpt lat="45.58347" lon="5.97906">
        <ele>445</ele>
        <time>2021-11-11T12:48:00Z</time>
      </trkpt>
      <trkpt lat="45.58361" lon="5.97912">
        <ele>438</ele>
        <time>2021-11-11T12:48:12Z</time>
      </trkpt>
      <trkpt lat="45.58438" lon="5.97877">
        <ele>432</ele>
        <time>2021-11-11T12:48:18Z</time>
      </trkpt>
      <trkpt lat="45.5847" lon="5.97862">
        <ele>426</ele>
        <time>2021-11-11T12:48:21Z</time>
      </trkpt>
      <trkpt lat="45.58503" lon="5.9784">
        <ele>424</ele>
        <time>2021-11-11T12:48:24Z</time>
      </trkpt>
      <trkpt lat="45.5853" lon="5.9781">
        <ele>424</ele>
        <time>2021-11-11T12:48:27Z</time>
      </trkpt>
      <trkpt lat="45.58617" lon="5.9775">
        <ele>411</ele>
        <time>2021-11-11T12:48:37Z</time>
      </trkpt>
      <trkpt lat="45.58609" lon="5.97679">
        <ele>414</ele>
        <time>2021-11-11T12:48:53Z</time>
      </trkpt>
      <trkpt lat="45.58575" lon="5.97583">
        <ele>413</ele>
        <time>2021-11-11T12:49:02Z</time>
      </trkpt>
      <trkpt lat="45.58388" lon="5.97507">
        <ele>400</ele>
        <time>2021-11-11T12:49:18Z</time>
      </trkpt>
      <trkpt lat="45.58329" lon="5.97453">
        <ele>396</ele>
        <time>2021-11-11T12:49:21Z</time>
      </trkpt>
      <trkpt lat="45.58222" lon="5.97374">
        <ele>389</ele>
        <time>2021-11-11T12:49:29Z</time>
      </trkpt>
      <trkpt lat="45.58138" lon="5.97339">
        <ele>381</ele>
        <time>2021-11-11T12:49:35Z</time>
      </trkpt>
      <trkpt lat="45.58036" lon="5.97315">
        <ele>375</ele>
        <time>2021-11-11T12:49:41Z</time>
      </trkpt>
      <trkpt lat="45.58002" lon="5.97294">
        <ele>371</ele>
        <time>2021-11-11T12:49:43Z</time>
      </trkpt>
      <trkpt lat="45.58025" lon="5.9724">
        <ele>365</ele>
        <time>2021-11-11T12:49:53Z</time>
      </trkpt>
      <trkpt lat="45.58038" lon="5.97187">
        <ele>363</ele>
        <time>2021-11-11T12:49:57Z</time>
      </trkpt>
      <trkpt lat="45.5809" lon="5.97036">
        <ele>348</ele>
        <time>2021-11-11T12:50:16Z</time>
      </trkpt>
      <trkpt lat="45.58083" lon="5.96987">
        <ele>343</ele>
        <time>2021-11-11T12:50:25Z</time>
      </trkpt>
      <trkpt lat="45.58083" lon="5.9694">
        <ele>342</ele>
        <time>2021-11-11T12:50:28Z</time>
      </trkpt>
      <trkpt lat="45.58089" lon="5.96831">
        <ele>334</ele>
        <time>2021-11-11T12:50:36Z</time>
      </trkpt>
      <trkpt lat="45.58081" lon="5.96764">
        <ele>327</ele>
        <time>2021-11-11T12:50:40Z</time>
      </trkpt>
      <trkpt lat="45.58071" lon="5.96712">
        <ele>325</ele>
        <time>2021-11-11T12:50:43Z</time>
      </trkpt>
      <trkpt lat="45.57977" lon="5.96613">
        <ele>311</ele>
        <time>2021-11-11T12:50:54Z</time>
      </trkpt>
      <trkpt lat="45.57888" lon="5.96572">
        <ele>311</ele>
        <time>2021-11-11T12:51:01Z</time>
      </trkpt>
      <trkpt lat="45.57819" lon="5.96513">
        <ele>310</ele>
        <time>2021-11-11T12:51:09Z</time>
      </trkpt>
      <trkpt lat="45.57793" lon="5.96478">
        <ele>307</ele>
        <time>2021-11-11T12:51:13Z</time>
      </trkpt>
      <trkpt lat="45.57768" lon="5.96449">
        <ele>309</ele>
        <time>2021-11-11T12:51:17Z</time>
      </trkpt>
      <trkpt lat="45.57717" lon="5.96388">
        <ele>308</ele>
        <time>2021-11-11T12:51:23Z</time>
      </trkpt>
      <trkpt lat="45.57683" lon="5.96362">
        <ele>310</ele>
        <time>2021-11-11T12:51:26Z</time>
      </trkpt>
      <trkpt lat="45.57636" lon="5.96363">
        <ele>311</ele>
        <time>2021-11-11T12:51:29Z</time>
      </trkpt>
      <trkpt lat="45.57531" lon="5.96383">
        <ele>310</ele>
        <time>2021-11-11T12:51:36Z</time>
      </trkpt>
      <trkpt lat="45.575" lon="5.9639">
        <ele>306</ele>
        <time>2021-11-11T12:51:39Z</time>
      </trkpt>
      <trkpt lat="45.57468" lon="5.96407">
        <ele>307</ele>
        <time>2021-11-11T12:51:43Z</time>
      </trkpt>
      <trkpt lat="45.57439" lon="5.96412">
        <ele>307</ele>
        <time>2021-11-11T12:51:47Z</time>
      </trkpt>
      <trkpt lat="45.57322" lon="5.96362">
        <ele>307</ele>
        <time>2021-11-11T12:52:02Z</time>
      </trkpt>
      <trkpt lat="45.57289" lon="5.96346">
        <ele>307</ele>
        <time>2021-11-11T12:52:05Z</time>
      </trkpt>
      <trkpt lat="45.57238" lon="5.96181">
        <ele>307</ele>
        <time>2021-11-11T12:52:14Z</time>
      </trkpt>
      <trkpt lat="45.57209" lon="5.96001">
        <ele>304</ele>
        <time>2021-11-11T12:52:27Z</time>
      </trkpt>
    </trkseg>
  </trk>
  <rte>
    <name><![CDATA[4 avr. 2019 à 23:11:12]]></name>
    <cmt><![CDATA[4 avr. 2019 à 23:11:12]]></cmt>
    <desc><![CDATA[{DC1}Heure de fin	: 
Durée totale	: 0h00:00
Moyenne globale	: -
Pente moyenne	: 0.00 %
Aire incluse	: 7.4932 ha
Détails par segments
distance  | durée    | vit.moy. | vit.max. | déniv. + | déniv -
   km     | hh:mn:ss |   km/h   |   km/h   |    m     |    m
     0.81 | 00:00:00 |      0.0 |      0.0 |        0 |        0{DC2}]]></desc>
      <rtept lat="45.60077" lon="6.18221">
        <ele>1608.6</ele>
      </rtept>
      <rtept lat="45.59468" lon="6.1822">
        <ele>1760.9</ele>
      </rtept>
      <rtept lat="45.59468" lon="6.1822">
        <ele>1760.9</ele>
      </rtept>
    </rte>
  <rte>
    <name><![CDATA[10 févr. 2019 à 15:16:12]]></name>
    <cmt><![CDATA[10 févr. 2019 à 15:16:12]]></cmt>
    <desc><![CDATA[{DC1}Heure de fin	: 00:09:21
Durée totale	: -17690439h43:48
Moyenne globale	: -
Pente moyenne	: 7.00 %
Aire incluse	: 221.0936 ha
Détails par segments
distance  | durée    | vit.moy. | vit.max. | déniv. + | déniv -
   km     | hh:mn:ss |   km/h   |   km/h   |    m     |    m
     7.48 | 00:00:00 |      0.0 |      0.0 |        0 |        0{DC2}]]></desc>
      <rtept lat="45.55203" lon="5.93805">
        <ele>376</ele>
      </rtept>
      <rtept lat="45.55177" lon="5.93873">
        <ele>369</ele>
      </rtept>
      <rtept lat="45.55176" lon="5.93942">
        <ele>367</ele>
      </rtept>
      <rtept lat="45.55105" lon="5.93942">
        <ele>367</ele>
      </rtept>
      <rtept lat="45.54993" lon="5.93908">
        <ele>371</ele>
      </rtept>
      <rtept lat="45.54929" lon="5.94099">
        <ele>370</ele>
      </rtept>
      <rtept lat="45.54908" lon="5.94204">
        <ele>367</ele>
      </rtept>
      <rtept lat="45.54991" lon="5.94287">
        <ele>365</ele>
      </rtept>
      <rtept lat="45.5506" lon="5.94384">
        <ele>361</ele>
      </rtept>
      <rtept lat="45.55147" lon="5.94384">
        <ele>357</ele>
      </rtept>
      <rtept lat="45.55129" lon="5.94607">
        <ele>358</ele>
      </rtept>
      <rtept lat="45.55029" lon="5.94809">
        <ele>355</ele>
      </rtept>
      <rtept lat="45.54884" lon="5.94886">
        <ele>346</ele>
      </rtept>
      <rtept lat="45.5477" lon="5.94931">
        <ele>342</ele>
      </rtept>
      <rtept lat="45.5468" lon="5.95004">
        <ele>339</ele>
      </rtept>
      <rtept lat="45.54596" lon="5.95133">
        <ele>340</ele>
      </rtept>
      <rtept lat="45.54446" lon="5.95195">
        <ele>343</ele>
      </rtept>
      <rtept lat="45.543" lon="5.95262">
        <ele>344</ele>
      </rtept>
      <rtept lat="45.54156" lon="5.95212">
        <ele>337</ele>
      </rtept>
      <rtept lat="45.54041" lon="5.95204">
        <ele>338</ele>
      </rtept>
      <rtept lat="45.53917" lon="5.95141">
        <ele>343</ele>
      </rtept>
      <rtept lat="45.53844" lon="5.95135">
        <ele>347</ele>
      </rtept>
      <rtept lat="45.53765" lon="5.9503">
        <ele>349</ele>
      </rtept>
      <rtept lat="45.5381" lon="5.94993">
        <ele>352</ele>
      </rtept>
      <rtept lat="45.53781" lon="5.94901">
        <ele>358</ele>
      </rtept>
      <rtept lat="45.53711" lon="5.94845">
        <ele>365</ele>
      </rtept>
      <rtept lat="45.53702" lon="5.94764">
        <ele>369</ele>
      </rtept>
      <rtept lat="45.53817" lon="5.94807">
        <ele>376</ele>
      </rtept>
      <rtept lat="45.53865" lon="5.94633">
        <ele>389</ele>
      </rtept>
      <rtept lat="45.53778" lon="5.94491">
        <ele>408</ele>
      </rtept>
      <rtept lat="45.53757" lon="5.94371">
        <ele>425</ele>
      </rtept>
      <rtept lat="45.53775" lon="5.94279">
        <ele>434</ele>
      </rtept>
      <rtept lat="45.53726" lon="5.94227">
        <ele>442</ele>
      </rtept>
      <rtept lat="45.53572" lon="5.94146">
        <ele>468</ele>
      </rtept>
      <rtept lat="45.53664" lon="5.94039">
        <ele>483</ele>
      </rtept>
      <rtept lat="45.53532" lon="5.93983">
        <ele>505</ele>
      </rtept>
      <rtept lat="45.53416" lon="5.93985">
        <ele>516</ele>
      </rtept>
      <rtept lat="45.5355" lon="5.93869">
        <ele>532</ele>
      </rtept>
      <rtept lat="45.5359" lon="5.93845">
        <ele>537</ele>
      </rtept>
      <rtept lat="45.5355" lon="5.93802">
        <ele>544</ele>
      </rtept>
      <rtept lat="45.53724" lon="5.93554">
        <ele>587</ele>
      </rtept>
      <rtept lat="45.53691" lon="5.93339">
        <ele>592</ele>
      </rtept>
      <rtept lat="45.5376" lon="5.93178">
        <ele>575</ele>
      </rtept>
      <rtept lat="45.53843" lon="5.93069">
        <ele>555</ele>
      </rtept>
      <rtept lat="45.53939" lon="5.93157">
        <ele>541</ele>
      </rtept>
      <rtept lat="45.54068" lon="5.93234">
        <ele>522</ele>
      </rtept>
      <rtept lat="45.54219" lon="5.93247">
        <ele>514</ele>
      </rtept>
      <rtept lat="45.54355" lon="5.93232">
        <ele>512</ele>
      </rtept>
      <rtept lat="45.54489" lon="5.9326">
        <ele>508</ele>
      </rtept>
      <rtept lat="45.54636" lon="5.93249">
        <ele>510</ele>
      </rtept>
      <rtept lat="45.54758" lon="5.93249">
        <ele>510</ele>
      </rtept>
      <rtept lat="45.54818" lon="5.93298">
        <ele>507</ele>
      </rtept>
      <rtept lat="45.54796" lon="5.93418">
        <ele>496</ele>
      </rtept>
      <rtept lat="45.5491" lon="5.93433">
        <ele>483</ele>
      </rtept>
      <rtept lat="45.55126" lon="5.9341">
        <ele>463</ele>
      </rtept>
      <rtept lat="45.55256" lon="5.93453">
        <ele>444</ele>
      </rtept>
      <rtept lat="45.55329" lon="5.93558">
        <ele>430</ele>
      </rtept>
      <rtept lat="45.55222" lon="5.93642">
        <ele>415</ele>
      </rtept>
      <rtept lat="45.55195" lon="5.93811">
        <ele>375</ele>
      </rtept>
    </rte>
  <rte>
    <name><![CDATA[10 févr. 2019 à 15:15:48]]></name>
    <cmt><![CDATA[10 févr. 2019 à 15:15:48]]></cmt>
    <desc><![CDATA[{DC1}Heure de fin	: 00:09:21
Durée totale	: -17690439h44:12
Moyenne globale	: -
Pente moyenne	: nan %
Aire incluse	: 0.0000 ha
Détails par segments
distance  | durée    | vit.moy. | vit.max. | déniv. + | déniv -
   km     | hh:mn:ss |   km/h   |   km/h   |    m     |    m
     0.00 | 00:00:00 |      0.0 |      0.0 |        0 |        0{DC2}]]></desc>
      <rtept lat="45.5175" lon="5.93483">
        <ele>732.3</ele>
      </rtept>
    </rte>
  <rte>
    <name><![CDATA[10 févr. 2019 à 15:06:08]]></name>
    <cmt><![CDATA[10 févr. 2019 à 15:06:08]]></cmt>
    <desc><![CDATA[{DC1}Heure de fin	: 
Durée totale	: 0h00:00
Moyenne globale	: -
Pente moyenne	: 8.03 %
Aire incluse	: 204.0794 ha
Détails par segments
distance  | durée    | vit.moy. | vit.max. | déniv. + | déniv -
   km     | hh:mn:ss |   km/h   |   km/h   |    m     |    m
    12.88 | 00:00:00 |      0.0 |      0.0 |        0 |        0{DC2}]]></desc>
      <rtept lat="45.5509" lon="5.9394">
        <ele>368</ele>
      </rtept>
      <rtept lat="45.55217" lon="5.93791">
        <ele>377</ele>
      </rtept>
    </rte>
  <rte>
    <name><![CDATA[10 févr. 2019 à 14:22:06]]></name>
    <cmt><![CDATA[10 févr. 2019 à 14:22:06]]></cmt>
    <desc><![CDATA[{DC1}Heure de fin	: 00:09:21
Durée totale	: -17690438h37:54
Moyenne globale	: -
Pente moyenne	: 5.62 %
Aire incluse	: 5.7967 ha
Détails par segments
distance  | durée    | vit.moy. | vit.max. | déniv. + | déniv -
   km     | hh:mn:ss |   km/h   |   km/h   |    m     |    m
     3.30 | 00:00:00 |      0.0 |      0.0 |        0 |        0{DC2}]]></desc>
      <rtept lat="45.55169" lon="5.93089">
        <ele>415</ele>
      </rtept>
      <rtept lat="45.5518" lon="5.93905">
        <ele>366</ele>
      </rtept>
    </rte>
  <rte>
    <name><![CDATA[10 févr. 2019 à 09:50:45]]></name>
    <cmt><![CDATA[10 févr. 2019 à 09:50:45]]></cmt>
    <desc><![CDATA[{DC1}Heure de fin	: 00:09:21
Durée totale	: -17690433h09:14
Moyenne globale	: -
Pente moyenne	: 0.00 %
Aire incluse	: 50.7119 ha
Détails par segments
distance  | durée    | vit.moy. | vit.max. | déniv. + | déniv -
   km     | hh:mn:ss |   km/h   |   km/h   |    m     |    m
     4.33 | 00:00:00 |      0.0 |      0.0 |        0 |        0{DC2}]]></desc>
      <rtept lat="45.5503" lon="5.93918">
        <ele>373.6</ele>
      </rtept>
      <rtept lat="45.55191" lon="5.93893">
        <ele>366.7</ele>
      </rtept>
    </rte>
  <rte>
    <name><![CDATA[10 févr. 2019 à 09:07:08]]></name>
    <cmt><![CDATA[10 févr. 2019 à 09:07:08]]></cmt>
    <desc><![CDATA[{DC1}Heure de fin	: 00:09:21
Durée totale	: -17690433h52:52
Moyenne globale	: -
Pente moyenne	: nan %
Aire incluse	: 0.0000 ha
Détails par segments
distance  | durée    | vit.moy. | vit.max. | déniv. + | déniv -
   km     | hh:mn:ss |   km/h   |   km/h   |    m     |    m
     0.00 | 00:00:00 |      0.0 |      0.0 |        0 |        0{DC2}]]></desc>
      <rtept lat="45.55102" lon="5.93919">
        <ele>370.1</ele>
      </rtept>
    </rte>
  <rte>
    <name><![CDATA[10 févr. 2019 à 09:02:25]]></name>
    <cmt><![CDATA[10 févr. 2019 à 09:02:25]]></cmt>
    <desc><![CDATA[{DC1}Heure de fin	: 00:09:21
Durée totale	: -17690433h57:35
Moyenne globale	: -
Pente moyenne	: nan %
Aire incluse	: 0.0000 ha
Détails par segments
distance  | durée    | vit.moy. | vit.max. | déniv. + | déniv -
   km     | hh:mn:ss |   km/h   |   km/h   |    m     |    m
     0.00 | 00:00:00 |      0.0 |      0.0 |        0 |        0{DC2}]]></desc>
      <rtept lat="45.55207" lon="5.93813">
        <ele>375.2</ele>
      </rtept>
    </rte>
  <rte>
    <name><![CDATA[10 févr. 2019 à 09:00:27]]></name>
    <cmt><![CDATA[10 févr. 2019 à 09:00:27]]></cmt>
    <desc><![CDATA[{DC1}Heure de fin	: 00:09:21
Durée totale	: -17690433h59:32
Moyenne globale	: -
Pente moyenne	: nan %
Aire incluse	: 0.0000 ha
Détails par segments
distance  | durée    | vit.moy. | vit.max. | déniv. + | déniv -
   km     | hh:mn:ss |   km/h   |   km/h   |    m     |    m
     0.00 | 00:00:00 |      0.0 |      0.0 |        0 |        0{DC2}]]></desc>
      <rtept lat="45.55244" lon="5.93858">
        <ele>366.6</ele>
      </rtept>
    </rte>
</gpx>